Wetterdaten: Sonntag, 08.03.2009
Datum Zeit Temp. Innen Temp. Aussen Feuchte Inne Feuchte Auss Luftdruck Regen ab 0,1 Wind
08.03.2009 00:00 17,0 C 7,6 C 46 % 77 % 1010,4 hPa 0,0 l/m 0,0 km/h (0 Bft)
08.03.2009 00:02 17,0 C 7,6 C 46 % 77 % 1010,4 hPa 0,0 l/m 2,2 km/h (1 Bft)
08.03.2009 00:04 17,0 C 7,6 C 46 % 77 % 1010,4 hPa 0,0 l/m 0,0 km/h (0 Bft)
08.03.2009 00:06 17,0 C 7,6 C 46 % 77 % 1010,4 hPa 0,0 l/m 0,0 km/h (0 Bft)
08.03.2009 00:08 17,0 C 7,6 C 46 % 77 % 1010,4 hPa 0,0 l/m 0,0 km/h (0 Bft)
08.03.2009 00:10 17,0 C 7,6 C 46 % 77 % 1010,4 hPa 0,0 l/m 0,0 km/h (0 Bft)
08.03.2009 00:12 17,0 C 7,6 C 46 % 77 % 1010,4 hPa 0,0 l/m 0,0 km/h (0 Bft)
08.03.2009 00:14 17,0 C 7,6 C 46 % 77 % 1010,4 hPa 0,0 l/m 0,0 km/h (0 Bft)
08.03.2009 00:16 17,0 C 7,6 C 46 % 77 % 1010,4 hPa 0,0 l/m 4,8 km/h (1 Bft)
08.03.2009 00:18 17,0 C 7,6 C 46 % 77 % 1010,4 hPa 0,0 l/m 0,0 km/h (0 Bft)
08.03.2009 00:20 17,0 C 7,6 C 46 % 77 % 1010,4 hPa 0,0 l/m 0,0 km/h (0 Bft)
08.03.2009 00:22 17,0 C 7,6 C 46 % 77 % 1010,4 hPa 0,0 l/m 0,0 km/h (0 Bft)
08.03.2009 00:24 17,0 C 7,6 C 46 % 77 % 1010,4 hPa 0,0 l/m 0,0 km/h (0 Bft)
08.03.2009 00:26 17,0 C 7,6 C 46 % 77 % 1010,4 hPa 0,0 l/m 0,0 km/h (0 Bft)
08.03.2009 00:28 17,0 C 7,6 C 46 % 77 % 1010,4 hPa 0,0 l/m 0,0 km/h (0 Bft)
08.03.2009 00:30 17,0 C 7,6 C 46 % 76 % 1010,4 hPa 0,0 l/m 0,0 km/h (0 Bft)
08.03.2009 00:32 17,0 C 7,6 C 46 % 77 % 1010,4 hPa 0,0 l/m 0,0 km/h (0 Bft)
08.03.2009 00:34 17,0 C 7,6 C 46 % 76 % 1010,4 hPa 0,0 l/m 0,0 km/h (0 Bft)
08.03.2009 00:36 17,0 C 7,6 C 46 % 76 % 1010,4 hPa 0,0 l/m 2,7 km/h (1 Bft)
08.03.2009 00:38 17,0 C 7,6 C 46 % 76 % 1010,4 hPa 0,0 l/m 0,0 km/h (0 Bft)
08.03.2009 00:40 17,0 C 7,7 C 46 % 76 % 1010,4 hPa 0,0 l/m 5,4 km/h (1 Bft)
08.03.2009 00:42 17,0 C 7,7 C 46 % 76 % 1009,4 hPa 0,0 l/m 0,0 km/h (0 Bft)
08.03.2009 00:44 17,0 C 7,7 C 46 % 76 % 1009,4 hPa 0,0 l/m 3,2 km/h (1 Bft)
08.03.2009 00:46 17,0 C 7,7 C 46 % 76 % 1009,4 hPa 0,0 l/m 0,0 km/h (0 Bft)
08.03.2009 00:48 17,0 C 7,7 C 46 % 76 % 1009,4 hPa 0,0 l/m 3,2 km/h (1 Bft)
08.03.2009 00:50 17,0 C 7,8 C 46 % 76 % 1009,4 hPa 0,0 l/m 5,9 km/h (2 Bft)
08.03.2009 00:52 17,0 C 7,7 C 46 % 76 % 1009,4 hPa 0,0 l/m 0,0 km/h (0 Bft)
08.03.2009 00:54 17,0 C 7,7 C 46 % 76 % 1009,4 hPa 0,0 l/m 0,0 km/h (0 Bft)
08.03.2009 00:56 17,0 C 7,8 C 46 % 76 % 1009,4 hPa 0,0 l/m 0,0 km/h (0 Bft)
08.03.2009 00:58 17,0 C 7,8 C 46 % 76 % 1009,4 hPa 0,0 l/m 0,0 km/h (0 Bft)
08.03.2009 01:00 17,0 C 7,8 C 46 % 76 % 1009,4 hPa 0,0 l/m 0,0 km/h (0 Bft)
08.03.2009 01:02 17,0 C 7,8 C 46 % 76 % 1009,4 hPa 0,0 l/m 0,0 km/h (0 Bft)
08.03.2009 01:04 17,0 C 7,8 C 46 % 76 % 1009,4 hPa 0,0 l/m 1,6 km/h (1 Bft)
08.03.2009 01:06 17,0 C 7,8 C 46 % 76 % 1009,4 hPa 0,0 l/m 0,0 km/h (0 Bft)
08.03.2009 01:08 17,0 C 7,8 C 46 % 76 % 1009,4 hPa 0,0 l/m 4,8 km/h (1 Bft)
08.03.2009 01:10 17,0 C 7,8 C 46 % 76 % 1009,4 hPa 0,0 l/m 7,0 km/h (2 Bft)
08.03.2009 01:12 17,0 C 7,8 C 46 % 76 % 1009,4 hPa 0,0 l/m 0,0 km/h (0 Bft)
08.03.2009 01:14 17,0 C 7,8 C 46 % 76 % 1009,4 hPa 0,0 l/m 0,0 km/h (0 Bft)
08.03.2009 01:16 17,0 C 7,8 C 46 % 76 % 1009,4 hPa 0,0 l/m 1,1 km/h (1 Bft)
08.03.2009 01:18 17,0 C 7,8 C 46 % 76 % 1009,4 hPa 0,0 l/m 3,8 km/h (1 Bft)
08.03.2009 01:20 17,0 C 7,8 C 46 % 76 % 1009,4 hPa 0,0 l/m 6,5 km/h (2 Bft)
08.03.2009 01:22 17,0 C 7,8 C 46 % 76 % 1009,4 hPa 0,0 l/m 1,6 km/h (1 Bft)
08.03.2009 01:24 17,0 C 7,8 C 46 % 76 % 1009,4 hPa 0,0 l/m 1,6 km/h (1 Bft)
08.03.2009 01:26 17,0 C 7,8 C 46 % 76 % 1009,4 hPa 0,0 l/m 0,0 km/h (0 Bft)
08.03.2009 01:28 17,0 C 7,8 C 46 % 76 % 1009,4 hPa 0,0 l/m 0,0 km/h (0 Bft)
08.03.2009 01:30 17,0 C 7,8 C 46 % 76 % 1009,4 hPa 0,0 l/m 0,0 km/h (0 Bft)
08.03.2009 01:32 17,0 C 7,8 C 46 % 76 % 1009,4 hPa 0,0 l/m 0,0 km/h (0 Bft)
08.03.2009 01:34 17,0 C 7,8 C 46 % 76 % 1009,4 hPa 0,0 l/m 10,8 km/h (2 Bft)
08.03.2009 01:36 17,0 C 7,8 C 46 % 76 % 1009,4 hPa 0,0 l/m 0,0 km/h (0 Bft)
08.03.2009 01:38 17,0 C 7,8 C 46 % 76 % 1009,4 hPa 0,0 l/m 0,0 km/h (0 Bft)
08.03.2009 01:40 17,0 C 7,8 C 46 % 76 % 1009,4 hPa 0,0 l/m 0,0 km/h (0 Bft)
08.03.2009 01:42 17,0 C 7,8 C 46 % 76 % 1009,4 hPa 0,0 l/m 0,0 km/h (0 Bft)
08.03.2009 01:44 17,0 C 7,7 C 46 % 76 % 1009,4 hPa 0,0 l/m 0,0 km/h (0 Bft)
08.03.2009 01:46 17,0 C 7,7 C 46 % 76 % 1008,4 hPa 0,0 l/m 0,0 km/h (0 Bft)
08.03.2009 01:48 17,0 C 7,6 C 46 % 76 % 1008,4 hPa 0,0 l/m 0,0 km/h (0 Bft)
08.03.2009 01:50 17,0 C 7,6 C 46 % 76 % 1008,4 hPa 0,0 l/m 0,0 km/h (0 Bft)
08.03.2009 01:52 17,0 C 7,6 C 46 % 76 % 1008,4 hPa 0,0 l/m 0,0 km/h (0 Bft)
08.03.2009 01:54 16,9 C 7,6 C 46 % 76 % 1008,4 hPa 0,0 l/m 0,0 km/h (0 Bft)
08.03.2009 01:56 16,9 C 7,6 C 46 % 76 % 1008,4 hPa 0,0 l/m 0,0 km/h (0 Bft)
08.03.2009 01:58 16,9 C 7,6 C 46 % 76 % 1008,4 hPa 0,0 l/m 0,0 km/h (0 Bft)
08.03.2009 02:00 17,0 C 7,6 C 46 % 76 % 1008,4 hPa 0,0 l/m 0,0 km/h (0 Bft)
08.03.2009 02:02 17,0 C 7,6 C 46 % 76 % 1008,4 hPa 0,0 l/m 0,0 km/h (0 Bft)
08.03.2009 02:04 16,9 C 7,6 C 45 % 76 % 1008,4 hPa 0,0 l/m 0,0 km/h (0 Bft)
08.03.2009 02:06 17,0 C 7,5 C 46 % 76 % 1008,4 hPa 0,0 l/m 0,5 km/h (0 Bft)
08.03.2009 02:08 16,9 C 7,5 C 45 % 76 % 1008,4 hPa 0,0 l/m 0,0 km/h (0 Bft)
08.03.2009 02:10 17,0 C 7,5 C 45 % 76 % 1008,4 hPa 0,0 l/m 0,0 km/h (0 Bft)
08.03.2009 02:12 16,9 C 7,5 C 46 % 76 % 1008,4 hPa 0,0 l/m 0,0 km/h (0 Bft)
08.03.2009 02:14 16,9 C 7,5 C 45 % 76 % 1008,4 hPa 0,0 l/m 0,0 km/h (0 Bft)
08.03.2009 02:16 16,9 C 7,4 C 45 % 76 % 1008,4 hPa 0,0 l/m 0,0 km/h (0 Bft)
08.03.2009 02:18 16,9 C 7,4 C 45 % 76 % 1008,4 hPa 0,0 l/m 12,4 km/h (3 Bft)
08.03.2009 02:20 16,9 C 7,4 C 45 % 76 % 1008,4 hPa 0,0 l/m 0,0 km/h (0 Bft)
08.03.2009 02:22 16,9 C 7,4 C 45 % 76 % 1008,4 hPa 0,0 l/m 0,0 km/h (0 Bft)
08.03.2009 02:24 16,9 C 7,4 C 45 % 77 % 1008,4 hPa 0,0 l/m 1,6 km/h (1 Bft)
08.03.2009 02:26 16,9 C 7,4 C 45 % 77 % 1008,4 hPa 0,0 l/m 1,6 km/h (1 Bft)
08.03.2009 02:28 16,9 C 7,4 C 45 % 77 % 1008,4 hPa 0,0 l/m 0,0 km/h (0 Bft)
08.03.2009 02:30 16,9 C 7,4 C 45 % 77 % 1008,4 hPa 0,0 l/m 4,8 km/h (1 Bft)
08.03.2009 02:32 16,9 C 7,4 C 45 % 77 % 1008,4 hPa 0,0 l/m 4,8 km/h (1 Bft)
08.03.2009 02:34 16,9 C 7,5 C 45 % 77 % 1008,4 hPa 0,0 l/m 0,0 km/h (0 Bft)
08.03.2009 02:36 16,9 C 7,5 C 45 % 77 % 1008,4 hPa 0,0 l/m 0,0 km/h (0 Bft)
08.03.2009 02:38 16,9 C 7,5 C 45 % 77 % 1008,4 hPa 0,0 l/m 2,7 km/h (1 Bft)
08.03.2009 02:40 16,9 C 7,5 C 45 % 77 % 1008,4 hPa 0,0 l/m 15,1 km/h (3 Bft)
08.03.2009 02:42 16,9 C 7,5 C 45 % 77 % 1008,4 hPa 0,0 l/m 0,0 km/h (0 Bft)
08.03.2009 02:44 16,9 C 7,5 C 45 % 77 % 1008,4 hPa 0,0 l/m 2,2 km/h (1 Bft)
08.03.2009 02:46 16,9 C 7,5 C 45 % 77 % 1008,4 hPa 0,0 l/m 0,0 km/h (0 Bft)
08.03.2009 02:48 16,9 C 7,5 C 45 % 77 % 1008,4 hPa 0,0 l/m 0,0 km/h (0 Bft)
08.03.2009 02:50 16,9 C 7,5 C 45 % 77 % 1008,4 hPa 0,0 l/m 0,0 km/h (0 Bft)
08.03.2009 02:52 16,9 C 7,5 C 45 % 77 % 1008,4 hPa 0,0 l/m 1,6 km/h (1 Bft)
08.03.2009 02:54 16,9 C 7,5 C 45 % 77 % 1008,4 hPa 0,0 l/m 0,0 km/h (0 Bft)
08.03.2009 02:56 16,9 C 7,5 C 45 % 77 % 1008,4 hPa 0,0 l/m 0,0 km/h (0 Bft)
08.03.2009 02:58 16,9 C 7,5 C 45 % 77 % 1008,4 hPa 0,0 l/m 0,0 km/h (0 Bft)
08.03.2009 03:00 16,9 C 7,5 C 45 % 77 % 1008,4 hPa 0,0 l/m 0,0 km/h (0 Bft)
08.03.2009 03:02 16,9 C 7,5 C 45 % 77 % 1008,4 hPa 0,0 l/m 0,0 km/h (0 Bft)
08.03.2009 03:04 16,9 C 7,5 C 45 % 77 % 1008,4 hPa 0,0 l/m 0,0 km/h (0 Bft)
08.03.2009 03:06 16,9 C 7,5 C 45 % 77 % 1008,4 hPa 0,0 l/m 0,0 km/h (0 Bft)
08.03.2009 03:08 16,9 C 7,5 C 45 % 77 % 1008,4 hPa 0,0 l/m 0,0 km/h (0 Bft)
08.03.2009 03:10 16,9 C 7,5 C 45 % 77 % 1008,4 hPa 0,0 l/m 0,0 km/h (0 Bft)
08.03.2009 03:12 16,9 C 7,5 C 45 % 77 % 1008,4 hPa 0,0 l/m 0,5 km/h (0 Bft)
08.03.2009 03:14 16,9 C 7,5 C 45 % 78 % 1007,4 hPa 0,0 l/m 0,0 km/h (0 Bft)
08.03.2009 03:16 16,9 C 7,5 C 45 % 77 % 1008,4 hPa 0,0 l/m 0,0 km/h (0 Bft)
08.03.2009 03:18 16,9 C 7,5 C 45 % 78 % 1007,4 hPa 0,0 l/m 0,0 km/h (0 Bft)
08.03.2009 03:20 16,9 C 7,5 C 45 % 78 % 1007,4 hPa 0,0 l/m 0,0 km/h (0 Bft)
08.03.2009 03:22 16,9 C 7,4 C 45 % 78 % 1007,4 hPa 0,0 l/m 0,0 km/h (0 Bft)
08.03.2009 03:24 16,9 C 7,4 C 45 % 79 % 1007,4 hPa 0,0 l/m 0,0 km/h (0 Bft)
08.03.2009 03:26 16,9 C 7,4 C 45 % 79 % 1007,4 hPa 0,0 l/m 0,0 km/h (0 Bft)
08.03.2009 03:28 16,9 C 7,4 C 46 % 79 % 1007,4 hPa 0,0 l/m 0,0 km/h (0 Bft)
08.03.2009 03:30 16,9 C 7,4 C 45 % 79 % 1007,4 hPa 0,0 l/m 0,0 km/h (0 Bft)
08.03.2009 03:32 16,9 C 7,3 C 46 % 79 % 1007,4 hPa 0,0 l/m 0,0 km/h (0 Bft)
08.03.2009 03:34 16,9 C 7,3 C 46 % 79 % 1007,4 hPa 0,0 l/m 0,0 km/h (0 Bft)
08.03.2009 03:36 16,9 C 7,3 C 46 % 80 % 1007,4 hPa 0,0 l/m 9,1 km/h (2 Bft)
08.03.2009 03:38 16,9 C 7,3 C 46 % 80 % 1007,4 hPa 0,0 l/m 0,0 km/h (0 Bft)
08.03.2009 03:40 16,9 C 7,2 C 46 % 80 % 1007,4 hPa 0,0 l/m 0,0 km/h (0 Bft)
08.03.2009 03:42 16,9 C 7,2 C 46 % 81 % 1007,4 hPa 0,0 l/m 4,8 km/h (1 Bft)
08.03.2009 03:44 16,9 C 7,2 C 46 % 81 % 1007,4 hPa 0,0 l/m 0,0 km/h (0 Bft)
08.03.2009 03:46 16,9 C 7,2 C 46 % 81 % 1007,4 hPa 0,0 l/m 0,0 km/h (0 Bft)
08.03.2009 03:48 16,9 C 7,2 C 46 % 81 % 1007,4 hPa 0,0 l/m 0,0 km/h (0 Bft)
08.03.2009 03:50 16,9 C 7,2 C 46 % 81 % 1007,4 hPa 0,0 l/m 0,0 km/h (0 Bft)
08.03.2009 03:52 16,9 C 7,2 C 46 % 81 % 1007,4 hPa 0,0 l/m 0,0 km/h (0 Bft)
08.03.2009 03:54 16,9 C 7,1 C 46 % 81 % 1006,4 hPa 0,0 l/m 0,0 km/h (0 Bft)
08.03.2009 03:56 16,9 C 7,1 C 46 % 81 % 1006,4 hPa 0,0 l/m 0,0 km/h (0 Bft)
08.03.2009 03:58 16,9 C 7,1 C 46 % 81 % 1006,4 hPa 0,0 l/m 0,0 km/h (0 Bft)
08.03.2009 04:00 16,9 C 7,1 C 46 % 81 % 1006,4 hPa 0,0 l/m 4,3 km/h (1 Bft)
08.03.2009 04:02 16,9 C 7,1 C 46 % 82 % 1006,4 hPa 0,0 l/m 0,0 km/h (0 Bft)
08.03.2009 04:04 16,9 C 7,2 C 46 % 82 % 1006,4 hPa 0,0 l/m 6,5 km/h (2 Bft)
08.03.2009 04:06 16,9 C 7,2 C 46 % 82 % 1006,4 hPa 0,0 l/m 0,0 km/h (0 Bft)
08.03.2009 04:08 16,9 C 7,2 C 46 % 82 % 1006,4 hPa 0,0 l/m 0,5 km/h (0 Bft)
08.03.2009 04:10 16,9 C 7,2 C 46 % 82 % 1006,4 hPa 0,0 l/m 0,0 km/h (0 Bft)
08.03.2009 04:12 16,9 C 7,2 C 46 % 82 % 1006,4 hPa 0,0 l/m 0,0 km/h (0 Bft)
08.03.2009 04:14 16,9 C 7,2 C 46 % 82 % 1006,4 hPa 0,0 l/m 0,0 km/h (0 Bft)
08.03.2009 04:16 16,9 C 7,3 C 46 % 82 % 1006,4 hPa 0,0 l/m 0,0 km/h (0 Bft)
08.03.2009 04:18 16,9 C 7,3 C 46 % 82 % 1006,4 hPa 0,0 l/m 0,0 km/h (0 Bft)
08.03.2009 04:20 16,9 C 7,3 C 46 % 82 % 1006,4 hPa 0,0 l/m 0,0 km/h (0 Bft)
08.03.2009 04:22 16,9 C 7,3 C 46 % 82 % 1006,4 hPa 0,0 l/m 0,0 km/h (0 Bft)
08.03.2009 04:24 16,9 C 7,3 C 46 % 82 % 1006,4 hPa 0,0 l/m 1,6 km/h (1 Bft)
08.03.2009 04:26 16,9 C 7,3 C 46 % 82 % 1006,4 hPa 0,0 l/m 1,6 km/h (1 Bft)
08.03.2009 04:28 16,9 C 7,4 C 46 % 82 % 1006,4 hPa 0,0 l/m 0,0 km/h (0 Bft)
08.03.2009 04:30 16,9 C 7,4 C 46 % 82 % 1006,4 hPa 0,0 l/m 1,6 km/h (1 Bft)
08.03.2009 04:32 16,8 C 7,4 C 46 % 82 % 1006,4 hPa 0,0 l/m 7,0 km/h (2 Bft)
08.03.2009 04:34 16,9 C 7,5 C 46 % 82 % 1006,4 hPa 0,0 l/m 0,0 km/h (0 Bft)
08.03.2009 04:36 16,9 C 7,5 C 46 % 82 % 1006,4 hPa 0,0 l/m 2,2 km/h (1 Bft)
08.03.2009 04:38 16,9 C 7,5 C 46 % 82 % 1006,4 hPa 0,0 l/m 7,5 km/h (2 Bft)
08.03.2009 04:40 16,9 C 7,6 C 46 % 82 % 1006,4 hPa 0,0 l/m 2,2 km/h (1 Bft)
08.03.2009 04:42 16,9 C 7,6 C 46 % 82 % 1006,4 hPa 0,0 l/m 0,0 km/h (0 Bft)
08.03.2009 04:44 16,9 C 7,6 C 46 % 82 % 1006,4 hPa 0,0 l/m 10,2 km/h (2 Bft)
08.03.2009 04:46 16,9 C 7,6 C 46 % 82 % 1006,4 hPa 0,0 l/m 0,0 km/h (0 Bft)
08.03.2009 04:48 16,8 C 7,6 C 46 % 82 % 1006,4 hPa 0,0 l/m 0,0 km/h (0 Bft)
08.03.2009 04:50 16,9 C 7,6 C 46 % 82 % 1006,4 hPa 0,0 l/m 5,4 km/h (1 Bft)
08.03.2009 04:52 16,9 C 7,6 C 46 % 82 % 1006,4 hPa 0,0 l/m 8,1 km/h (2 Bft)
08.03.2009 04:54 16,9 C 7,6 C 46 % 82 % 1006,4 hPa 0,0 l/m 0,0 km/h (0 Bft)
08.03.2009 04:56 16,9 C 7,6 C 46 % 82 % 1006,4 hPa 0,0 l/m 0,0 km/h (0 Bft)
08.03.2009 04:58 16,9 C 7,6 C 46 % 82 % 1006,4 hPa 0,0 l/m 15,6 km/h (3 Bft)
08.03.2009 05:00 16,9 C 7,6 C 46 % 82 % 1006,4 hPa 0,0 l/m 0,5 km/h (0 Bft)
08.03.2009 05:02 16,9 C 7,6 C 46 % 82 % 1006,4 hPa 0,0 l/m 0,0 km/h (0 Bft)
08.03.2009 05:04 16,9 C 7,6 C 46 % 82 % 1006,4 hPa 0,0 l/m 14,5 km/h (3 Bft)
08.03.2009 05:06 16,9 C 7,6 C 46 % 82 % 1005,4 hPa 0,0 l/m 2,2 km/h (1 Bft)
08.03.2009 05:08 16,8 C 7,6 C 46 % 82 % 1005,4 hPa 0,0 l/m 0,0 km/h (0 Bft)
08.03.2009 05:10 16,9 C 7,6 C 46 % 82 % 1005,4 hPa 0,0 l/m 0,0 km/h (0 Bft)
08.03.2009 05:12 16,9 C 7,6 C 46 % 82 % 1006,4 hPa 0,0 l/m 0,0 km/h (0 Bft)
08.03.2009 05:14 16,9 C 7,6 C 46 % 82 % 1005,4 hPa 0,0 l/m 2,2 km/h (1 Bft)
08.03.2009 05:16 16,9 C 7,6 C 46 % 82 % 1005,4 hPa 0,0 l/m 0,0 km/h (0 Bft)
08.03.2009 05:18 16,9 C 7,6 C 46 % 82 % 1005,4 hPa 0,0 l/m 0,0 km/h (0 Bft)
08.03.2009 05:20 16,9 C 7,6 C 46 % 82 % 1005,4 hPa 0,0 l/m 13,5 km/h (3 Bft)
08.03.2009 05:22 16,9 C 7,6 C 46 % 82 % 1005,4 hPa 0,0 l/m 0,0 km/h (0 Bft)
08.03.2009 05:24 16,9 C 7,7 C 46 % 82 % 1005,4 hPa 0,0 l/m 13,5 km/h (3 Bft)
08.03.2009 05:26 16,9 C 7,7 C 46 % 82 % 1005,4 hPa 0,0 l/m 13,5 km/h (3 Bft)
08.03.2009 05:28 16,9 C 7,8 C 46 % 82 % 1005,4 hPa 0,0 l/m 3,8 km/h (1 Bft)
08.03.2009 05:30 16,9 C 7,8 C 46 % 82 % 1005,4 hPa 0,0 l/m 0,0 km/h (0 Bft)
08.03.2009 05:32 16,8 C 7,8 C 46 % 82 % 1005,4 hPa 0,0 l/m 0,0 km/h (0 Bft)
08.03.2009 05:34 16,9 C 7,8 C 46 % 82 % 1005,4 hPa 0,0 l/m 0,0 km/h (0 Bft)
08.03.2009 05:36 16,9 C 7,8 C 46 % 82 % 1005,4 hPa 0,0 l/m 0,0 km/h (0 Bft)
08.03.2009 05:38 16,9 C 7,8 C 46 % 82 % 1005,4 hPa 0,0 l/m 0,5 km/h (0 Bft)
08.03.2009 05:40 16,9 C 7,9 C 46 % 82 % 1005,4 hPa 0,0 l/m 0,0 km/h (0 Bft)
08.03.2009 05:42 16,9 C 7,9 C 46 % 82 % 1005,4 hPa 0,0 l/m 8,1 km/h (2 Bft)
08.03.2009 05:44 16,8 C 7,9 C 46 % 82 % 1005,4 hPa 0,0 l/m 0,0 km/h (0 Bft)
08.03.2009 05:46 16,9 C 7,9 C 46 % 82 % 1005,4 hPa 0,0 l/m 0,0 km/h (0 Bft)
08.03.2009 05:48 16,8 C 7,9 C 46 % 82 % 1005,4 hPa 0,0 l/m 0,0 km/h (0 Bft)
08.03.2009 05:50 16,8 C 7,9 C 46 % 82 % 1005,4 hPa 0,0 l/m 4,3 km/h (1 Bft)
08.03.2009 05:52 16,8 C 7,9 C 46 % 82 % 1005,4 hPa 0,0 l/m 0,0 km/h (0 Bft)
08.03.2009 05:54 16,9 C 7,9 C 46 % 82 % 1005,4 hPa 0,0 l/m 0,0 km/h (0 Bft)
08.03.2009 05:56 16,9 C 7,9 C 46 % 82 % 1005,4 hPa 0,0 l/m 0,0 km/h (0 Bft)
08.03.2009 05:58 16,8 C 7,9 C 46 % 82 % 1005,4 hPa 0,0 l/m 0,0 km/h (0 Bft)
08.03.2009 06:00 16,9 C 8,0 C 46 % 82 % 1005,4 hPa 0,0 l/m 8,1 km/h (2 Bft)
08.03.2009 06:02 16,8 C 8,1 C 46 % 82 % 1005,4 hPa 0,0 l/m 0,0 km/h (0 Bft)
08.03.2009 06:04 16,9 C 8,1 C 46 % 82 % 1005,4 hPa 0,0 l/m 1,6 km/h (1 Bft)
08.03.2009 06:06 16,8 C 8,1 C 46 % 82 % 1005,4 hPa 0,0 l/m 9,7 km/h (2 Bft)
08.03.2009 06:08 16,8 C 8,1 C 46 % 82 % 1005,4 hPa 0,0 l/m 0,0 km/h (0 Bft)
08.03.2009 06:10 16,9 C 8,1 C 46 % 82 % 1005,4 hPa 0,0 l/m 3,8 km/h (1 Bft)
08.03.2009 06:12 16,8 C 8,1 C 46 % 82 % 1005,4 hPa 0,0 l/m 0,0 km/h (0 Bft)
08.03.2009 06:14 16,9 C 8,1 C 46 % 82 % 1005,4 hPa 0,0 l/m 0,0 km/h (0 Bft)
08.03.2009 06:16 16,9 C 8,1 C 46 % 82 % 1005,4 hPa 0,0 l/m 0,0 km/h (0 Bft)
08.03.2009 06:18 16,8 C 8,2 C 46 % 82 % 1005,4 hPa 0,0 l/m 4,3 km/h (1 Bft)
08.03.2009 06:20 16,9 C 8,2 C 46 % 82 % 1005,4 hPa 0,0 l/m 31,2 km/h (5 Bft)
08.03.2009 06:22 16,9 C 8,2 C 46 % 82 % 1005,4 hPa 0,0 l/m 0,0 km/h (0 Bft)
08.03.2009 06:24 16,9 C 8,2 C 47 % 82 % 1005,4 hPa 0,0 l/m 11,3 km/h (2 Bft)
08.03.2009 06:26 16,9 C 8,2 C 47 % 82 % 1005,4 hPa 0,0 l/m 11,3 km/h (2 Bft)
08.03.2009 06:28 16,9 C 8,2 C 47 % 82 % 1005,4 hPa 0,0 l/m 0,0 km/h (0 Bft)
08.03.2009 06:30 16,9 C 8,2 C 47 % 82 % 1005,4 hPa 0,0 l/m 9,7 km/h (2 Bft)
08.03.2009 06:32 17,0 C 8,2 C 47 % 82 % 1005,4 hPa 0,0 l/m 0,0 km/h (0 Bft)
08.03.2009 06:34 17,0 C 8,3 C 47 % 82 % 1005,4 hPa 0,0 l/m 0,0 km/h (0 Bft)
08.03.2009 06:36 17,0 C 8,3 C 47 % 82 % 1005,4 hPa 0,0 l/m 0,0 km/h (0 Bft)
08.03.2009 06:38 17,0 C 8,3 C 47 % 82 % 1005,4 hPa 0,0 l/m 2,2 km/h (1 Bft)
08.03.2009 06:40 17,0 C 8,3 C 47 % 81 % 1005,4 hPa 0,0 l/m 0,0 km/h (0 Bft)
08.03.2009 06:42 17,0 C 8,3 C 47 % 81 % 1005,4 hPa 0,0 l/m 8,1 km/h (2 Bft)
08.03.2009 06:44 17,0 C 8,3 C 47 % 81 % 1005,4 hPa 0,0 l/m 0,0 km/h (0 Bft)
08.03.2009 06:46 17,1 C 8,3 C 47 % 81 % 1004,4 hPa 0,0 l/m 10,8 km/h (2 Bft)
08.03.2009 06:48 17,1 C 8,3 C 47 % 81 % 1004,4 hPa 0,0 l/m 1,6 km/h (1 Bft)
08.03.2009 06:50 17,1 C 8,4 C 47 % 81 % 1004,4 hPa 0,0 l/m 0,0 km/h (0 Bft)
08.03.2009 06:52 17,1 C 8,3 C 47 % 81 % 1004,4 hPa 0,0 l/m 12,9 km/h (3 Bft)
08.03.2009 06:54 17,1 C 8,4 C 47 % 81 % 1004,4 hPa 0,0 l/m 2,7 km/h (1 Bft)
08.03.2009 06:56 17,1 C 8,4 C 47 % 81 % 1004,4 hPa 0,0 l/m 19,4 km/h (3 Bft)
08.03.2009 06:58 17,1 C 8,4 C 47 % 81 % 1005,4 hPa 0,0 l/m 19,4 km/h (3 Bft)
08.03.2009 07:00 17,1 C 8,4 C 47 % 81 % 1005,4 hPa 0,0 l/m 0,0 km/h (0 Bft)
08.03.2009 07:02 17,1 C 8,4 C 47 % 81 % 1004,4 hPa 0,0 l/m 8,6 km/h (2 Bft)
08.03.2009 07:04 17,2 C 8,4 C 47 % 81 % 1005,4 hPa 0,0 l/m 3,2 km/h (1 Bft)
08.03.2009 07:06 17,1 C 8,4 C 47 % 81 % 1005,4 hPa 0,0 l/m 9,7 km/h (2 Bft)
08.03.2009 07:08 17,2 C 8,4 C 47 % 81 % 1005,4 hPa 0,0 l/m 0,0 km/h (0 Bft)
08.03.2009 07:10 17,2 C 8,4 C 47 % 81 % 1005,4 hPa 0,0 l/m 2,7 km/h (1 Bft)
08.03.2009 07:12 17,2 C 8,4 C 47 % 81 % 1005,4 hPa 0,0 l/m 0,0 km/h (0 Bft)
08.03.2009 07:14 17,2 C 8,4 C 47 % 81 % 1004,4 hPa 0,0 l/m 6,5 km/h (2 Bft)
08.03.2009 07:16 17,2 C 8,4 C 47 % 81 % 1004,4 hPa 0,0 l/m 1,6 km/h (1 Bft)
08.03.2009 07:18 17,2 C 8,4 C 47 % 81 % 1004,4 hPa 0,0 l/m 1,1 km/h (1 Bft)
08.03.2009 07:20 17,2 C 8,4 C 47 % 81 % 1004,4 hPa 0,0 l/m 7,5 km/h (2 Bft)
08.03.2009 07:22 17,2 C 8,4 C 47 % 81 % 1004,4 hPa 0,0 l/m 0,0 km/h (0 Bft)
08.03.2009 07:24 17,2 C 8,4 C 47 % 81 % 1004,4 hPa 0,0 l/m 4,3 km/h (1 Bft)
08.03.2009 07:26 17,2 C 8,4 C 47 % 81 % 1004,4 hPa 0,0 l/m 0,0 km/h (0 Bft)
08.03.2009 07:28 17,2 C 8,4 C 47 % 81 % 1004,4 hPa 0,0 l/m 0,0 km/h (0 Bft)
08.03.2009 07:30 17,2 C 8,4 C 47 % 81 % 1004,4 hPa 0,0 l/m 0,0 km/h (0 Bft)
08.03.2009 07:32 17,2 C 8,4 C 47 % 81 % 1004,4 hPa 0,0 l/m 1,6 km/h (1 Bft)
08.03.2009 07:34 17,2 C 8,4 C 47 % 81 % 1004,4 hPa 0,0 l/m 4,3 km/h (1 Bft)
08.03.2009 07:36 17,2 C 8,4 C 47 % 81 % 1004,4 hPa 0,0 l/m 4,8 km/h (1 Bft)
08.03.2009 07:38 17,2 C 8,4 C 47 % 81 % 1004,4 hPa 0,0 l/m 0,0 km/h (0 Bft)
08.03.2009 07:40 17,2 C 8,4 C 47 % 81 % 1004,4 hPa 0,0 l/m 0,0 km/h (0 Bft)
08.03.2009 07:42 17,2 C 8,4 C 47 % 81 % 1004,4 hPa 0,0 l/m 0,0 km/h (0 Bft)
08.03.2009 07:44 17,2 C 8,4 C 47 % 81 % 1004,4 hPa 0,0 l/m 17,2 km/h (3 Bft)
08.03.2009 07:46 17,2 C 8,4 C 47 % 81 % 1004,4 hPa 0,0 l/m 0,0 km/h (0 Bft)
08.03.2009 07:48 17,2 C 8,4 C 47 % 81 % 1004,4 hPa 0,0 l/m 6,5 km/h (2 Bft)
08.03.2009 07:50 17,2 C 8,4 C 47 % 81 % 1004,4 hPa 0,0 l/m 1,6 km/h (1 Bft)
08.03.2009 07:52 17,2 C 8,4 C 47 % 81 % 1004,4 hPa 0,0 l/m 5,9 km/h (2 Bft)
08.03.2009 07:54 17,2 C 8,5 C 47 % 81 % 1004,4 hPa 0,0 l/m 13,5 km/h (3 Bft)
08.03.2009 07:56 17,2 C 8,5 C 47 % 81 % 1004,4 hPa 0,0 l/m 2,7 km/h (1 Bft)
08.03.2009 07:58 17,2 C 8,5 C 47 % 81 % 1004,4 hPa 0,0 l/m 2,7 km/h (1 Bft)
08.03.2009 08:00 17,2 C 8,5 C 47 % 81 % 1004,4 hPa 0,0 l/m 0,5 km/h (0 Bft)
08.03.2009 08:02 17,2 C 8,5 C 47 % 81 % 1004,4 hPa 0,0 l/m 0,0 km/h (0 Bft)
08.03.2009 08:04 17,2 C 8,6 C 47 % 81 % 1004,4 hPa 0,0 l/m 0,0 km/h (0 Bft)
08.03.2009 08:06 17,2 C 8,6 C 47 % 81 % 1004,4 hPa 0,0 l/m 0,0 km/h (0 Bft)
08.03.2009 08:08 17,2 C 8,6 C 47 % 81 % 1004,4 hPa 0,0 l/m 6,5 km/h (2 Bft)
08.03.2009 08:10 17,2 C 8,6 C 47 % 81 % 1004,4 hPa 0,0 l/m 0,0 km/h (0 Bft)
08.03.2009 08:12 17,2 C 8,6 C 47 % 81 % 1004,4 hPa 0,0 l/m 9,1 km/h (2 Bft)
08.03.2009 08:14 17,2 C 8,6 C 47 % 81 % 1004,4 hPa 0,0 l/m 0,0 km/h (0 Bft)
08.03.2009 08:16 17,2 C 8,7 C 47 % 81 % 1004,4 hPa 0,0 l/m 12,9 km/h (3 Bft)
08.03.2009 08:18 17,2 C 8,7 C 47 % 81 % 1004,4 hPa 0,0 l/m 3,2 km/h (1 Bft)
08.03.2009 08:20 17,2 C 8,7 C 47 % 81 % 1004,4 hPa 0,0 l/m 0,0 km/h (0 Bft)
08.03.2009 08:22 17,2 C 8,8 C 47 % 81 % 1004,4 hPa 0,0 l/m 0,0 km/h (0 Bft)
08.03.2009 08:24 17,2 C 8,7 C 47 % 81 % 1004,4 hPa 0,0 l/m 0,0 km/h (0 Bft)
08.03.2009 08:26 17,2 C 8,8 C 47 % 81 % 1004,4 hPa 0,0 l/m 2,7 km/h (1 Bft)
08.03.2009 08:28 17,2 C 8,8 C 47 % 81 % 1004,4 hPa 0,0 l/m 2,7 km/h (1 Bft)
08.03.2009 08:30 17,2 C 8,9 C 47 % 81 % 1004,4 hPa 0,0 l/m 3,8 km/h (1 Bft)
08.03.2009 08:32 17,2 C 8,8 C 47 % 81 % 1004,4 hPa 0,0 l/m 5,4 km/h (1 Bft)
08.03.2009 08:34 17,2 C 8,9 C 47 % 81 % 1004,4 hPa 0,0 l/m 7,5 km/h (2 Bft)
08.03.2009 08:36 17,2 C 8,9 C 47 % 81 % 1004,4 hPa 0,0 l/m 0,0 km/h (0 Bft)
08.03.2009 08:38 17,2 C 8,9 C 47 % 81 % 1004,4 hPa 0,0 l/m 13,5 km/h (3 Bft)
08.03.2009 08:40 17,2 C 8,9 C 47 % 81 % 1004,4 hPa 0,0 l/m 9,1 km/h (2 Bft)
08.03.2009 08:42 17,2 C 8,9 C 47 % 81 % 1004,4 hPa 0,0 l/m 0,0 km/h (0 Bft)
08.03.2009 08:44 17,2 C 8,9 C 47 % 81 % 1004,4 hPa 0,0 l/m 0,0 km/h (0 Bft)
08.03.2009 08:46 17,2 C 8,9 C 47 % 81 % 1004,4 hPa 0,0 l/m 0,0 km/h (0 Bft)
08.03.2009 08:48 17,2 C 8,9 C 47 % 81 % 1004,4 hPa 0,0 l/m 16,1 km/h (3 Bft)
08.03.2009 08:50 17,2 C 8,9 C 47 % 81 % 1004,4 hPa 0,0 l/m 7,5 km/h (2 Bft)
08.03.2009 08:52 17,2 C 8,9 C 47 % 81 % 1004,4 hPa 0,0 l/m 6,5 km/h (2 Bft)
08.03.2009 08:54 17,2 C 8,9 C 47 % 81 % 1003,4 hPa 0,0 l/m 1,6 km/h (1 Bft)
08.03.2009 08:56 17,2 C 8,9 C 47 % 81 % 1003,4 hPa 0,0 l/m 0,0 km/h (0 Bft)
08.03.2009 08:58 17,2 C 8,9 C 47 % 81 % 1003,4 hPa 0,0 l/m 0,0 km/h (0 Bft)
08.03.2009 09:00 17,2 C 8,9 C 47 % 81 % 1004,4 hPa 0,0 l/m 1,6 km/h (1 Bft)
08.03.2009 09:02 17,2 C 8,9 C 47 % 81 % 1003,4 hPa 0,0 l/m 5,4 km/h (1 Bft)
08.03.2009 09:04 17,2 C 8,9 C 47 % 81 % 1003,4 hPa 0,0 l/m 0,0 km/h (0 Bft)
08.03.2009 09:06 17,2 C 8,9 C 47 % 82 % 1003,4 hPa 0,0 l/m 0,0 km/h (0 Bft)
08.03.2009 09:08 17,2 C 8,9 C 47 % 82 % 1003,4 hPa 0,0 l/m 1,6 km/h (1 Bft)
08.03.2009 09:10 17,2 C 8,9 C 47 % 82 % 1003,4 hPa 0,0 l/m 0,0 km/h (0 Bft)
08.03.2009 09:12 17,2 C 8,9 C 47 % 82 % 1003,4 hPa 0,0 l/m 0,0 km/h (0 Bft)
08.03.2009 09:14 17,2 C 8,9 C 47 % 82 % 1003,4 hPa 0,0 l/m 0,0 km/h (0 Bft)
08.03.2009 09:16 17,2 C 8,9 C 47 % 82 % 1003,4 hPa 0,0 l/m 3,8 km/h (1 Bft)
08.03.2009 09:18 17,2 C 8,9 C 47 % 82 % 1003,4 hPa 0,0 l/m 10,2 km/h (2 Bft)
08.03.2009 09:20 17,2 C 8,9 C 47 % 82 % 1003,4 hPa 0,0 l/m 0,0 km/h (0 Bft)
08.03.2009 09:22 17,2 C 8,9 C 48 % 83 % 1003,4 hPa 0,0 l/m 14,5 km/h (3 Bft)
08.03.2009 09:24 17,2 C 8,9 C 48 % 83 % 1003,4 hPa 0,0 l/m 0,0 km/h (0 Bft)
08.03.2009 09:26 17,2 C 8,9 C 48 % 83 % 1003,4 hPa 0,0 l/m 11,3 km/h (2 Bft)
08.03.2009 09:28 17,2 C 8,9 C 48 % 83 % 1003,4 hPa 0,0 l/m 11,3 km/h (2 Bft)
08.03.2009 09:30 17,1 C 8,8 C 48 % 83 % 1003,4 hPa 0,5 l/m 0,0 km/h (0 Bft)
08.03.2009 09:32 17,1 C 8,9 C 48 % 83 % 1003,4 hPa 0,0 l/m 11,8 km/h (2 Bft)
08.03.2009 09:34 17,2 C 8,8 C 48 % 83 % 1003,4 hPa 0,0 l/m 0,0 km/h (0 Bft)
08.03.2009 09:36 17,1 C 8,8 C 48 % 83 % 1003,4 hPa 0,0 l/m 3,8 km/h (1 Bft)
08.03.2009 09:38 17,1 C 8,8 C 48 % 84 % 1003,4 hPa 0,0 l/m 0,0 km/h (0 Bft)
08.03.2009 09:40 17,1 C 8,8 C 48 % 84 % 1003,4 hPa 0,0 l/m 13,5 km/h (3 Bft)
08.03.2009 09:42 17,1 C 8,8 C 48 % 84 % 1003,4 hPa 0,0 l/m 14,5 km/h (3 Bft)
08.03.2009 09:44 17,1 C 8,8 C 49 % 84 % 1003,4 hPa 0,0 l/m 12,9 km/h (3 Bft)
08.03.2009 09:46 17,1 C 8,8 C 49 % 84 % 1003,4 hPa 0,0 l/m 8,6 km/h (2 Bft)
08.03.2009 09:48 17,1 C 8,7 C 49 % 84 % 1003,4 hPa 0,0 l/m 0,0 km/h (0 Bft)
08.03.2009 09:50 17,1 C 8,7 C 49 % 85 % 1003,4 hPa 0,0 l/m 0,0 km/h (0 Bft)
08.03.2009 09:52 17,1 C 8,8 C 49 % 85 % 1003,4 hPa 0,0 l/m 8,1 km/h (2 Bft)
08.03.2009 09:54 17,1 C 8,6 C 49 % 85 % 1003,4 hPa 0,0 l/m 0,0 km/h (0 Bft)
08.03.2009 09:56 17,1 C 8,6 C 49 % 85 % 1003,4 hPa 0,0 l/m 2,7 km/h (1 Bft)
08.03.2009 09:58 17,1 C 8,6 C 49 % 85 % 1003,4 hPa 0,0 l/m 2,7 km/h (1 Bft)
08.03.2009 10:00 17,1 C 8,6 C 49 % 85 % 1003,4 hPa 0,0 l/m 12,4 km/h (3 Bft)
08.03.2009 10:02 17,1 C 8,6 C 49 % 85 % 1003,4 hPa 0,0 l/m 31,8 km/h (5 Bft)
08.03.2009 10:04 17,1 C 8,6 C 49 % 86 % 1003,4 hPa 0,5 l/m 4,3 km/h (1 Bft)
08.03.2009 10:06 17,1 C 8,6 C 49 % 86 % 1003,4 hPa 0,0 l/m 5,4 km/h (1 Bft)
08.03.2009 10:08 17,1 C 8,6 C 49 % 86 % 1003,4 hPa 0,0 l/m 13,5 km/h (3 Bft)
08.03.2009 10:10 17,1 C 8,6 C 49 % 86 % 1003,4 hPa 0,0 l/m 19,4 km/h (3 Bft)
08.03.2009 10:12 17,1 C 8,6 C 49 % 86 % 1003,4 hPa 0,0 l/m 0,0 km/h (0 Bft)
08.03.2009 10:14 17,1 C 8,6 C 49 % 86 % 1003,4 hPa 0,0 l/m 0,0 km/h (0 Bft)
08.03.2009 10:16 17,1 C 8,6 C 49 % 86 % 1003,4 hPa 0,0 l/m 0,0 km/h (0 Bft)
08.03.2009 10:18 17,1 C 8,6 C 49 % 86 % 1003,4 hPa 0,0 l/m 20,5 km/h (4 Bft)
08.03.2009 10:20 17,1 C 8,6 C 49 % 86 % 1003,4 hPa 0,0 l/m 1,6 km/h (1 Bft)
08.03.2009 10:22 17,1 C 8,6 C 49 % 86 % 1003,4 hPa 0,0 l/m 10,8 km/h (2 Bft)
08.03.2009 10:24 17,1 C 8,6 C 49 % 86 % 1003,4 hPa 0,0 l/m 0,0 km/h (0 Bft)
08.03.2009 10:26 17,1 C 8,6 C 50 % 86 % 1003,4 hPa 0,0 l/m 12,4 km/h (3 Bft)
08.03.2009 10:28 17,1 C 8,6 C 50 % 86 % 1003,4 hPa 0,0 l/m 12,4 km/h (3 Bft)
08.03.2009 10:30 17,1 C 8,6 C 50 % 87 % 1003,4 hPa 0,5 l/m 3,2 km/h (1 Bft)
08.03.2009 10:32 17,1 C 8,6 C 50 % 87 % 1003,4 hPa 0,0 l/m 31,8 km/h (5 Bft)
08.03.2009 10:34 17,1 C 8,6 C 50 % 87 % 1003,4 hPa 0,0 l/m 1,6 km/h (1 Bft)
08.03.2009 10:36 17,1 C 8,6 C 50 % 87 % 1003,4 hPa 0,0 l/m 5,9 km/h (2 Bft)
08.03.2009 10:38 17,1 C 8,7 C 50 % 87 % 1003,4 hPa 0,0 l/m 24,8 km/h (4 Bft)
08.03.2009 10:40 17,1 C 8,6 C 50 % 87 % 1003,4 hPa 0,0 l/m 0,0 km/h (0 Bft)
08.03.2009 10:42 17,1 C 8,6 C 50 % 87 % 1003,4 hPa 0,0 l/m 12,4 km/h (3 Bft)
08.03.2009 10:44 17,0 C 8,7 C 50 % 87 % 1003,4 hPa 0,0 l/m 19,9 km/h (4 Bft)
08.03.2009 10:46 17,1 C 8,6 C 50 % 87 % 1003,4 hPa 0,0 l/m 17,8 km/h (3 Bft)
08.03.2009 10:48 17,0 C 8,6 C 50 % 87 % 1003,4 hPa 0,0 l/m 4,3 km/h (1 Bft)
08.03.2009 10:50 17,1 C 8,7 C 50 % 87 % 1003,4 hPa 0,0 l/m 18,3 km/h (3 Bft)
08.03.2009 10:52 17,1 C 8,8 C 50 % 87 % 1003,4 hPa 0,0 l/m 9,1 km/h (2 Bft)
08.03.2009 10:54 17,1 C 8,8 C 50 % 87 % 1003,4 hPa 0,5 l/m 7,0 km/h (2 Bft)
08.03.2009 10:56 17,0 C 8,8 C 50 % 87 % 1003,4 hPa 0,0 l/m 16,7 km/h (3 Bft)
08.03.2009 10:58 17,1 C 8,8 C 50 % 87 % 1003,4 hPa 0,0 l/m 8,6 km/h (2 Bft)
08.03.2009 11:00 17,1 C 8,8 C 50 % 87 % 1003,4 hPa 0,0 l/m 8,6 km/h (2 Bft)
08.03.2009 11:02 17,0 C 8,8 C 50 % 87 % 1003,4 hPa 0,0 l/m 9,7 km/h (2 Bft)
08.03.2009 11:04 17,0 C 8,8 C 50 % 88 % 1003,4 hPa 0,0 l/m 4,8 km/h (1 Bft)
08.03.2009 11:06 17,1 C 8,8 C 50 % 88 % 1003,4 hPa 0,0 l/m 0,0 km/h (0 Bft)
08.03.2009 11:08 17,1 C 8,8 C 50 % 88 % 1003,4 hPa 0,0 l/m 5,4 km/h (1 Bft)
08.03.2009 11:10 17,1 C 8,8 C 50 % 88 % 1003,4 hPa 0,0 l/m 18,3 km/h (3 Bft)
08.03.2009 11:12 17,0 C 8,8 C 50 % 88 % 1003,4 hPa 0,0 l/m 15,1 km/h (3 Bft)
08.03.2009 11:14 17,1 C 8,8 C 50 % 88 % 1003,4 hPa 0,0 l/m 30,7 km/h (5 Bft)
08.03.2009 11:16 17,1 C 8,8 C 50 % 88 % 1004,4 hPa 0,0 l/m 3,8 km/h (1 Bft)
08.03.2009 11:18 17,1 C 8,8 C 50 % 88 % 1004,4 hPa 0,0 l/m 11,3 km/h (2 Bft)
08.03.2009 11:20 17,1 C 8,8 C 50 % 88 % 1004,4 hPa 0,5 l/m 0,0 km/h (0 Bft)
08.03.2009 11:22 17,0 C 8,8 C 50 % 88 % 1004,4 hPa 0,0 l/m 3,2 km/h (1 Bft)
08.03.2009 11:24 17,1 C 8,8 C 51 % 88 % 1004,4 hPa 0,0 l/m 15,1 km/h (3 Bft)
08.03.2009 11:26 17,1 C 8,8 C 51 % 88 % 1004,4 hPa 0,0 l/m 10,2 km/h (2 Bft)
08.03.2009 11:28 17,1 C 8,7 C 51 % 88 % 1004,4 hPa 0,0 l/m 8,1 km/h (2 Bft)
08.03.2009 11:30 17,1 C 8,7 C 51 % 88 % 1004,4 hPa 0,0 l/m 8,1 km/h (2 Bft)
08.03.2009 11:32 17,0 C 8,7 C 51 % 87 % 1004,4 hPa 0,0 l/m 4,8 km/h (1 Bft)
08.03.2009 11:34 17,0 C 8,6 C 51 % 87 % 1004,4 hPa 0,0 l/m 1,6 km/h (1 Bft)
08.03.2009 11:36 17,0 C 8,6 C 51 % 87 % 1004,4 hPa 0,0 l/m 3,8 km/h (1 Bft)
08.03.2009 11:38 17,0 C 8,6 C 51 % 87 % 1004,4 hPa 0,5 l/m 0,0 km/h (0 Bft)
08.03.2009 11:40 17,1 C 8,6 C 51 % 87 % 1004,4 hPa 0,0 l/m 10,2 km/h (2 Bft)
08.03.2009 11:42 17,0 C 8,6 C 51 % 87 % 1004,4 hPa 0,0 l/m 0,0 km/h (0 Bft)
08.03.2009 11:44 17,0 C 8,6 C 51 % 87 % 1004,4 hPa 0,0 l/m 4,8 km/h (1 Bft)
08.03.2009 11:46 17,0 C 8,5 C 51 % 87 % 1004,4 hPa 0,0 l/m 1,6 km/h (1 Bft)
08.03.2009 11:48 17,1 C 8,6 C 51 % 87 % 1004,4 hPa 0,0 l/m 0,0 km/h (0 Bft)
08.03.2009 11:50 17,0 C 8,6 C 51 % 87 % 1004,4 hPa 0,0 l/m 0,0 km/h (0 Bft)
08.03.2009 11:52 17,0 C 8,6 C 51 % 87 % 1004,4 hPa 0,0 l/m 0,0 km/h (0 Bft)
08.03.2009 11:54 17,0 C 8,6 C 51 % 87 % 1004,4 hPa 0,0 l/m 0,0 km/h (0 Bft)
08.03.2009 11:56 17,0 C 8,7 C 51 % 87 % 1004,4 hPa 0,0 l/m 0,0 km/h (0 Bft)
08.03.2009 11:58 17,1 C 8,7 C 51 % 87 % 1004,4 hPa 0,0 l/m 18,3 km/h (3 Bft)
08.03.2009 12:00 17,1 C 8,7 C 51 % 87 % 1004,4 hPa 0,0 l/m 18,3 km/h (3 Bft)
08.03.2009 12:02 17,0 C 8,8 C 51 % 87 % 1004,4 hPa 0,0 l/m 0,0 km/h (0 Bft)
08.03.2009 12:04 17,1 C 8,8 C 51 % 87 % 1004,4 hPa 0,0 l/m 1,1 km/h (1 Bft)
08.03.2009 12:06 17,1 C 8,8 C 51 % 87 % 1003,4 hPa 0,0 l/m 0,0 km/h (0 Bft)
08.03.2009 12:08 17,1 C 8,9 C 51 % 87 % 1003,4 hPa 0,0 l/m 0,0 km/h (0 Bft)
08.03.2009 12:10 17,0 C 8,9 C 51 % 87 % 1003,4 hPa 0,0 l/m 8,1 km/h (2 Bft)
08.03.2009 12:12 17,0 C 8,9 C 51 % 87 % 1003,4 hPa 0,0 l/m 3,8 km/h (1 Bft)
08.03.2009 12:14 17,1 C 8,9 C 51 % 87 % 1003,4 hPa 0,0 l/m 0,0 km/h (0 Bft)
08.03.2009 12:16 17,0 C 9,1 C 51 % 87 % 1003,4 hPa 0,0 l/m 4,8 km/h (1 Bft)
08.03.2009 12:18 17,1 C 9,2 C 51 % 87 % 1003,4 hPa 0,0 l/m 4,3 km/h (1 Bft)
08.03.2009 12:20 17,1 C 9,2 C 51 % 87 % 1003,4 hPa 0,0 l/m 3,8 km/h (1 Bft)
08.03.2009 12:22 17,1 C 9,3 C 51 % 87 % 1003,4 hPa 0,0 l/m 0,0 km/h (0 Bft)
08.03.2009 12:24 17,1 C 9,3 C 51 % 87 % 1003,4 hPa 0,0 l/m 3,8 km/h (1 Bft)
08.03.2009 12:26 17,1 C 9,4 C 51 % 87 % 1003,4 hPa 0,0 l/m 2,2 km/h (1 Bft)
08.03.2009 12:28 17,1 C 9,5 C 51 % 87 % 1003,4 hPa 0,0 l/m 2,2 km/h (1 Bft)
08.03.2009 12:30 17,1 C 9,5 C 51 % 87 % 1003,4 hPa 0,0 l/m 2,2 km/h (1 Bft)
08.03.2009 12:32 17,1 C 9,5 C 51 % 87 % 1003,4 hPa 0,0 l/m 4,8 km/h (1 Bft)
08.03.2009 12:34 17,1 C 9,6 C 51 % 87 % 1003,4 hPa 0,0 l/m 0,0 km/h (0 Bft)
08.03.2009 12:36 17,1 C 9,5 C 51 % 87 % 1003,4 hPa 0,0 l/m 4,8 km/h (1 Bft)
08.03.2009 12:38 17,1 C 9,5 C 51 % 86 % 1003,4 hPa 0,0 l/m 0,5 km/h (0 Bft)
08.03.2009 12:40 17,1 C 9,6 C 51 % 86 % 1003,4 hPa 0,0 l/m 0,0 km/h (0 Bft)
08.03.2009 12:42 17,1 C 9,6 C 51 % 86 % 1003,4 hPa 0,0 l/m 8,6 km/h (2 Bft)
08.03.2009 12:44 17,1 C 9,6 C 51 % 86 % 1003,4 hPa 0,0 l/m 8,6 km/h (2 Bft)
08.03.2009 12:46 17,1 C 9,6 C 51 % 86 % 1003,4 hPa 0,0 l/m 0,0 km/h (0 Bft)
08.03.2009 12:48 17,1 C 9,7 C 51 % 86 % 1003,4 hPa 0,0 l/m 7,0 km/h (2 Bft)
08.03.2009 12:50 17,1 C 9,8 C 51 % 86 % 1003,4 hPa 0,0 l/m 0,0 km/h (0 Bft)
08.03.2009 12:52 17,1 C 9,8 C 51 % 86 % 1003,4 hPa 0,0 l/m 11,3 km/h (2 Bft)
08.03.2009 12:54 17,1 C 9,8 C 51 % 85 % 1003,4 hPa 0,0 l/m 1,1 km/h (1 Bft)
08.03.2009 12:56 17,1 C 9,8 C 51 % 85 % 1003,4 hPa 0,0 l/m 6,5 km/h (2 Bft)
08.03.2009 12:58 17,1 C 9,9 C 51 % 85 % 1003,4 hPa 0,0 l/m 4,3 km/h (1 Bft)
08.03.2009 13:00 17,1 C 9,9 C 51 % 85 % 1003,4 hPa 0,0 l/m 4,3 km/h (1 Bft)
08.03.2009 13:02 17,1 C 9,9 C 51 % 85 % 1003,4 hPa 0,0 l/m 0,0 km/h (0 Bft)
08.03.2009 13:04 17,1 C 9,9 C 51 % 85 % 1003,4 hPa 0,0 l/m 12,9 km/h (3 Bft)
08.03.2009 13:06 17,1 C 9,9 C 51 % 85 % 1003,4 hPa 0,0 l/m 0,0 km/h (0 Bft)
08.03.2009 13:08 17,1 C 9,9 C 51 % 84 % 1003,4 hPa 0,0 l/m 16,7 km/h (3 Bft)
08.03.2009 13:10 17,1 C 9,9 C 51 % 84 % 1003,4 hPa 0,0 l/m 2,2 km/h (1 Bft)
08.03.2009 13:12 17,1 C 9,9 C 51 % 84 % 1003,4 hPa 0,0 l/m 10,2 km/h (2 Bft)
08.03.2009 13:14 17,1 C 10,1 C 51 % 84 % 1003,3 hPa 0,0 l/m 8,1 km/h (2 Bft)
08.03.2009 13:16 17,1 C 10,1 C 51 % 83 % 1003,3 hPa 0,0 l/m 11,3 km/h (2 Bft)
08.03.2009 13:18 17,1 C 10,1 C 51 % 83 % 1003,3 hPa 0,0 l/m 10,8 km/h (2 Bft)
08.03.2009 13:20 17,1 C 10,1 C 51 % 83 % 1003,3 hPa 0,0 l/m 15,1 km/h (3 Bft)
08.03.2009 13:22 17,1 C 10,1 C 51 % 83 % 1003,3 hPa 0,0 l/m 0,0 km/h (0 Bft)
08.03.2009 13:24 17,1 C 10,1 C 51 % 83 % 1003,3 hPa 0,0 l/m 0,0 km/h (0 Bft)
08.03.2009 13:26 17,1 C 10,1 C 51 % 82 % 1003,3 hPa 0,0 l/m 11,3 km/h (2 Bft)
08.03.2009 13:28 17,1 C 10,2 C 51 % 82 % 1003,3 hPa 0,0 l/m 8,1 km/h (2 Bft)
08.03.2009 13:30 17,1 C 10,2 C 51 % 82 % 1003,3 hPa 0,0 l/m 8,1 km/h (2 Bft)
08.03.2009 13:32 17,1 C 10,2 C 51 % 82 % 1003,3 hPa 0,0 l/m 16,7 km/h (3 Bft)
08.03.2009 13:34 17,1 C 10,3 C 51 % 82 % 1003,3 hPa 0,0 l/m 7,0 km/h (2 Bft)
08.03.2009 13:36 17,1 C 10,3 C 51 % 81 % 1003,3 hPa 0,0 l/m 12,9 km/h (3 Bft)
08.03.2009 13:38 17,1 C 10,4 C 51 % 81 % 1003,3 hPa 0,0 l/m 0,0 km/h (0 Bft)
08.03.2009 13:40 17,1 C 10,4 C 51 % 81 % 1003,3 hPa 0,0 l/m 0,0 km/h (0 Bft)
08.03.2009 13:42 17,2 C 10,4 C 51 % 81 % 1003,3 hPa 0,0 l/m 32,3 km/h (5 Bft)
08.03.2009 13:44 17,1 C 10,4 C 51 % 80 % 1003,3 hPa 0,0 l/m 16,1 km/h (3 Bft)
08.03.2009 13:46 17,1 C 10,5 C 51 % 80 % 1003,3 hPa 0,0 l/m 2,2 km/h (1 Bft)
08.03.2009 13:48 17,1 C 10,6 C 51 % 80 % 1003,3 hPa 0,0 l/m 14,0 km/h (3 Bft)
08.03.2009 13:50 17,2 C 10,6 C 51 % 76 % 1003,3 hPa 0,0 l/m 26,4 km/h (4 Bft)
08.03.2009 13:52 17,2 C 10,6 C 51 % 75 % 1003,3 hPa 0,0 l/m 4,8 km/h (1 Bft)
08.03.2009 13:54 17,2 C 10,6 C 51 % 73 % 1003,3 hPa 0,0 l/m 0,0 km/h (0 Bft)
08.03.2009 13:56 17,2 C 10,5 C 51 % 72 % 1003,3 hPa 0,0 l/m 5,9 km/h (2 Bft)
08.03.2009 13:58 17,2 C 10,4 C 51 % 72 % 1003,3 hPa 0,0 l/m 0,0 km/h (0 Bft)
08.03.2009 14:00 17,2 C 10,4 C 51 % 72 % 1003,3 hPa 0,0 l/m 0,0 km/h (0 Bft)
08.03.2009 14:02 17,2 C 10,4 C 51 % 72 % 1003,3 hPa 0,0 l/m 0,0 km/h (0 Bft)
08.03.2009 14:04 17,2 C 10,3 C 51 % 72 % 1003,3 hPa 0,0 l/m 14,5 km/h (3 Bft)
08.03.2009 14:06 17,2 C 10,3 C 51 % 71 % 1003,3 hPa 0,0 l/m 0,0 km/h (0 Bft)
08.03.2009 14:08 17,2 C 10,3 C 51 % 72 % 1003,3 hPa 0,0 l/m 10,2 km/h (2 Bft)
08.03.2009 14:10 17,2 C 10,2 C 51 % 71 % 1003,3 hPa 0,0 l/m 15,1 km/h (3 Bft)
08.03.2009 14:12 17,1 C 10,1 C 51 % 71 % 1003,3 hPa 0,0 l/m 2,7 km/h (1 Bft)
08.03.2009 14:14 17,2 C 10,1 C 51 % 71 % 1003,3 hPa 0,0 l/m 2,7 km/h (1 Bft)
08.03.2009 14:16 17,1 C 10,1 C 51 % 70 % 1003,3 hPa 0,0 l/m 14,5 km/h (3 Bft)
08.03.2009 14:18 17,1 C 9,9 C 51 % 71 % 1003,4 hPa 0,0 l/m 0,0 km/h (0 Bft)
08.03.2009 14:20 17,1 C 9,9 C 51 % 71 % 1003,4 hPa 0,0 l/m 0,0 km/h (0 Bft)
08.03.2009 14:22 17,1 C 9,9 C 51 % 70 % 1003,4 hPa 0,0 l/m 0,0 km/h (0 Bft)
08.03.2009 14:24 17,1 C 9,8 C 51 % 71 % 1003,4 hPa 0,0 l/m 15,1 km/h (3 Bft)
08.03.2009 14:26 17,1 C 9,8 C 51 % 71 % 1003,4 hPa 0,0 l/m 0,0 km/h (0 Bft)
08.03.2009 14:28 17,2 C 9,8 C 51 % 71 % 1003,4 hPa 0,0 l/m 14,5 km/h (3 Bft)
08.03.2009 14:30 17,1 C 9,8 C 51 % 71 % 1003,4 hPa 0,0 l/m 14,5 km/h (3 Bft)
08.03.2009 14:32 17,1 C 9,8 C 50 % 71 % 1003,4 hPa 0,0 l/m 12,4 km/h (3 Bft)
08.03.2009 14:34 17,2 C 9,8 C 50 % 71 % 1003,4 hPa 0,0 l/m 12,9 km/h (3 Bft)
08.03.2009 14:36 17,2 C 9,8 C 50 % 71 % 1003,4 hPa 0,0 l/m 0,0 km/h (0 Bft)
08.03.2009 14:38 17,2 C 9,8 C 50 % 71 % 1003,4 hPa 0,0 l/m 17,8 km/h (3 Bft)
08.03.2009 14:40 17,2 C 9,9 C 50 % 71 % 1003,4 hPa 0,0 l/m 5,9 km/h (2 Bft)
08.03.2009 14:42 17,2 C 9,9 C 50 % 71 % 1003,4 hPa 0,0 l/m 2,7 km/h (1 Bft)
08.03.2009 14:44 17,3 C 10,1 C 50 % 71 % 1003,3 hPa 0,0 l/m 17,8 km/h (3 Bft)
08.03.2009 14:46 17,3 C 10,1 C 50 % 70 % 1003,3 hPa 0,0 l/m 16,7 km/h (3 Bft)
08.03.2009 14:48 17,3 C 10,2 C 50 % 70 % 1003,3 hPa 0,0 l/m 0,0 km/h (0 Bft)
08.03.2009 14:50 17,4 C 10,3 C 50 % 70 % 1003,3 hPa 0,0 l/m 0,0 km/h (0 Bft)
08.03.2009 14:52 17,4 C 10,3 C 50 % 69 % 1003,3 hPa 0,0 l/m 8,1 km/h (2 Bft)
08.03.2009 14:54 17,4 C 10,4 C 50 % 69 % 1003,3 hPa 0,0 l/m 5,9 km/h (2 Bft)
08.03.2009 14:56 17,4 C 10,5 C 50 % 69 % 1003,3 hPa 0,0 l/m 0,0 km/h (0 Bft)
08.03.2009 14:58 17,5 C 10,6 C 50 % 69 % 1003,3 hPa 0,0 l/m 1,6 km/h (1 Bft)
08.03.2009 15:00 17,5 C 10,6 C 50 % 69 % 1003,3 hPa 0,0 l/m 1,6 km/h (1 Bft)
08.03.2009 15:02 17,5 C 10,7 C 50 % 68 % 1003,3 hPa 0,0 l/m 6,5 km/h (2 Bft)
08.03.2009 15:04 17,5 C 10,8 C 50 % 68 % 1003,3 hPa 0,0 l/m 11,8 km/h (2 Bft)
08.03.2009 15:06 17,6 C 10,8 C 50 % 68 % 1003,3 hPa 0,0 l/m 10,8 km/h (2 Bft)
08.03.2009 15:08 17,6 C 10,8 C 50 % 67 % 1003,3 hPa 0,0 l/m 9,1 km/h (2 Bft)
08.03.2009 15:10 17,6 C 10,8 C 50 % 66 % 1003,3 hPa 0,0 l/m 0,0 km/h (0 Bft)
08.03.2009 15:12 17,6 C 10,7 C 50 % 66 % 1003,3 hPa 0,0 l/m 0,0 km/h (0 Bft)
08.03.2009 15:14 17,6 C 10,7 C 50 % 66 % 1003,3 hPa 0,0 l/m 3,8 km/h (1 Bft)
08.03.2009 15:16 17,6 C 10,6 C 50 % 66 % 1003,3 hPa 0,0 l/m 7,5 km/h (2 Bft)
08.03.2009 15:18 17,6 C 10,6 C 49 % 66 % 1003,3 hPa 0,0 l/m 1,6 km/h (1 Bft)
08.03.2009 15:20 17,6 C 10,6 C 49 % 66 % 1003,3 hPa 0,0 l/m 17,2 km/h (3 Bft)
08.03.2009 15:22 17,6 C 10,5 C 49 % 66 % 1003,3 hPa 0,0 l/m 10,2 km/h (2 Bft)
08.03.2009 15:24 17,6 C 10,5 C 49 % 66 % 1002,3 hPa 0,0 l/m 2,7 km/h (1 Bft)
08.03.2009 15:26 17,6 C 10,5 C 49 % 66 % 1003,3 hPa 0,0 l/m 0,0 km/h (0 Bft)
08.03.2009 15:28 17,6 C 10,5 C 49 % 66 % 1003,3 hPa 0,0 l/m 7,5 km/h (2 Bft)
08.03.2009 15:30 17,6 C 10,5 C 49 % 66 % 1003,3 hPa 0,0 l/m 7,5 km/h (2 Bft)
08.03.2009 15:32 17,6 C 10,4 C 49 % 66 % 1002,3 hPa 0,0 l/m 0,0 km/h (0 Bft)
08.03.2009 15:34 17,6 C 10,4 C 49 % 66 % 1003,3 hPa 0,0 l/m 2,7 km/h (1 Bft)
08.03.2009 15:36 17,6 C 10,4 C 49 % 66 % 1002,3 hPa 0,0 l/m 7,5 km/h (2 Bft)
08.03.2009 15:38 17,5 C 10,4 C 49 % 66 % 1002,3 hPa 0,0 l/m 0,0 km/h (0 Bft)
08.03.2009 15:40 17,5 C 10,4 C 49 % 67 % 1002,3 hPa 0,0 l/m 0,0 km/h (0 Bft)
08.03.2009 15:42 17,6 C 10,4 C 49 % 67 % 1002,3 hPa 0,0 l/m 0,0 km/h (0 Bft)
08.03.2009 15:44 17,6 C 10,4 C 49 % 67 % 1003,3 hPa 0,0 l/m 5,9 km/h (2 Bft)
08.03.2009 15:46 17,6 C 10,4 C 49 % 67 % 1003,3 hPa 0,0 l/m 0,0 km/h (0 Bft)
08.03.2009 15:48 17,6 C 10,5 C 49 % 68 % 1002,3 hPa 0,0 l/m 0,0 km/h (0 Bft)
08.03.2009 15:50 17,6 C 10,5 C 49 % 68 % 1003,3 hPa 0,0 l/m 2,7 km/h (1 Bft)
08.03.2009 15:52 17,6 C 10,5 C 49 % 67 % 1002,3 hPa 0,0 l/m 12,4 km/h (3 Bft)
08.03.2009 15:54 17,7 C 10,6 C 49 % 67 % 1002,3 hPa 0,0 l/m 0,0 km/h (0 Bft)
08.03.2009 15:56 17,7 C 10,6 C 49 % 67 % 1002,3 hPa 0,0 l/m 0,0 km/h (0 Bft)
08.03.2009 15:58 17,7 C 10,6 C 49 % 66 % 1002,3 hPa 0,0 l/m 0,0 km/h (0 Bft)
08.03.2009 16:00 17,7 C 10,6 C 49 % 66 % 1002,3 hPa 0,0 l/m 0,0 km/h (0 Bft)
08.03.2009 16:02 17,7 C 10,6 C 49 % 66 % 1002,3 hPa 0,0 l/m 0,0 km/h (0 Bft)
08.03.2009 16:04 17,7 C 10,6 C 49 % 66 % 1002,3 hPa 0,0 l/m 5,4 km/h (1 Bft)
08.03.2009 16:06 17,7 C 10,5 C 49 % 66 % 1002,3 hPa 0,0 l/m 0,0 km/h (0 Bft)
08.03.2009 16:08 17,7 C 10,5 C 49 % 66 % 1002,3 hPa 0,0 l/m 12,9 km/h (3 Bft)
08.03.2009 16:10 17,6 C 10,5 C 49 % 65 % 1002,3 hPa 0,0 l/m 9,1 km/h (2 Bft)
08.03.2009 16:12 17,6 C 10,4 C 49 % 65 % 1002,3 hPa 0,0 l/m 0,0 km/h (0 Bft)
08.03.2009 16:14 17,6 C 10,4 C 49 % 66 % 1002,3 hPa 0,0 l/m 19,9 km/h (4 Bft)
08.03.2009 16:16 17,6 C 10,4 C 49 % 65 % 1002,3 hPa 0,0 l/m 0,0 km/h (0 Bft)
08.03.2009 16:18 17,6 C 10,4 C 49 % 65 % 1002,3 hPa 0,0 l/m 4,3 km/h (1 Bft)
08.03.2009 16:20 17,6 C 10,4 C 49 % 65 % 1002,3 hPa 0,0 l/m 0,0 km/h (0 Bft)
08.03.2009 16:22 17,6 C 10,4 C 49 % 65 % 1002,3 hPa 0,0 l/m 0,0 km/h (0 Bft)
08.03.2009 16:24 17,6 C 10,4 C 49 % 65 % 1002,3 hPa 0,0 l/m 3,2 km/h (1 Bft)
08.03.2009 16:26 17,6 C 10,4 C 49 % 65 % 1002,3 hPa 0,0 l/m 0,0 km/h (0 Bft)
08.03.2009 16:28 17,6 C 10,5 C 49 % 65 % 1002,3 hPa 0,0 l/m 0,0 km/h (0 Bft)
08.03.2009 16:30 17,6 C 10,5 C 49 % 65 % 1002,3 hPa 0,0 l/m 0,0 km/h (0 Bft)
08.03.2009 16:32 17,6 C 10,4 C 49 % 65 % 1002,3 hPa 0,0 l/m 3,8 km/h (1 Bft)
08.03.2009 16:34 17,6 C 10,4 C 49 % 65 % 1002,3 hPa 0,0 l/m 0,0 km/h (0 Bft)
08.03.2009 16:36 17,6 C 10,5 C 49 % 65 % 1002,3 hPa 0,0 l/m 15,1 km/h (3 Bft)
08.03.2009 16:38 17,6 C 10,5 C 49 % 64 % 1002,3 hPa 0,0 l/m 0,0 km/h (0 Bft)
08.03.2009 16:40 17,6 C 10,5 C 49 % 64 % 1002,3 hPa 0,0 l/m 0,0 km/h (0 Bft)
08.03.2009 16:42 17,6 C 10,5 C 49 % 64 % 1002,3 hPa 0,0 l/m 5,9 km/h (2 Bft)
08.03.2009 16:44 17,6 C 10,4 C 48 % 64 % 1002,3 hPa 0,0 l/m 9,7 km/h (2 Bft)
08.03.2009 16:46 17,6 C 10,4 C 49 % 64 % 1002,3 hPa 0,0 l/m 14,5 km/h (3 Bft)
08.03.2009 16:48 17,6 C 10,4 C 48 % 64 % 1002,3 hPa 0,0 l/m 0,0 km/h (0 Bft)
08.03.2009 16:50 17,6 C 10,4 C 48 % 64 % 1002,3 hPa 0,0 l/m 1,6 km/h (1 Bft)
08.03.2009 16:52 17,6 C 10,4 C 48 % 63 % 1002,3 hPa 0,0 l/m 0,0 km/h (0 Bft)
08.03.2009 16:54 17,6 C 10,4 C 48 % 63 % 1002,3 hPa 0,0 l/m 1,6 km/h (1 Bft)
08.03.2009 16:56 17,6 C 10,4 C 48 % 63 % 1002,3 hPa 0,0 l/m 10,2 km/h (2 Bft)
08.03.2009 16:58 17,6 C 10,3 C 48 % 64 % 1002,3 hPa 0,0 l/m 0,0 km/h (0 Bft)
08.03.2009 17:00 17,6 C 10,3 C 48 % 64 % 1002,3 hPa 0,0 l/m 0,0 km/h (0 Bft)
08.03.2009 17:02 17,6 C 10,3 C 48 % 63 % 1002,3 hPa 0,0 l/m 5,4 km/h (1 Bft)
08.03.2009 17:04 17,6 C 10,3 C 48 % 63 % 1002,3 hPa 0,0 l/m 1,6 km/h (1 Bft)
08.03.2009 17:06 17,6 C 10,2 C 48 % 63 % 1002,3 hPa 0,0 l/m 0,0 km/h (0 Bft)
08.03.2009 17:08 17,6 C 10,1 C 48 % 63 % 1002,3 hPa 0,0 l/m 0,0 km/h (0 Bft)
08.03.2009 17:10 17,6 C 10,1 C 48 % 63 % 1002,3 hPa 0,0 l/m 0,0 km/h (0 Bft)
08.03.2009 17:12 17,6 C 10,1 C 48 % 64 % 1002,3 hPa 0,0 l/m 3,8 km/h (1 Bft)
08.03.2009 17:14 17,6 C 10,1 C 48 % 64 % 1002,3 hPa 0,0 l/m 0,0 km/h (0 Bft)
08.03.2009 17:16 17,6 C 10,1 C 48 % 64 % 1002,3 hPa 0,0 l/m 0,0 km/h (0 Bft)
08.03.2009 17:18 17,6 C 10,0 C 48 % 64 % 1002,3 hPa 0,0 l/m 0,0 km/h (0 Bft)
08.03.2009 17:20 17,6 C 9,9 C 48 % 64 % 1002,3 hPa 0,0 l/m 7,5 km/h (2 Bft)
08.03.2009 17:22 17,6 C 9,9 C 48 % 64 % 1002,3 hPa 0,0 l/m 0,0 km/h (0 Bft)
08.03.2009 17:24 17,6 C 9,9 C 48 % 64 % 1002,3 hPa 0,0 l/m 0,0 km/h (0 Bft)
08.03.2009 17:26 17,6 C 9,9 C 48 % 65 % 1002,3 hPa 0,0 l/m 0,0 km/h (0 Bft)
08.03.2009 17:28 17,6 C 9,9 C 48 % 65 % 1002,3 hPa 0,0 l/m 0,0 km/h (0 Bft)
08.03.2009 17:30 17,6 C 9,9 C 48 % 65 % 1002,3 hPa 0,0 l/m 0,0 km/h (0 Bft)
08.03.2009 17:32 17,6 C 9,9 C 48 % 65 % 1002,3 hPa 0,0 l/m 0,0 km/h (0 Bft)
08.03.2009 17:34 17,6 C 9,9 C 48 % 65 % 1002,3 hPa 0,0 l/m 0,0 km/h (0 Bft)
08.03.2009 17:36 17,6 C 9,8 C 48 % 65 % 1002,3 hPa 0,0 l/m 0,0 km/h (0 Bft)
08.03.2009 17:38 17,6 C 9,8 C 48 % 65 % 1002,3 hPa 0,0 l/m 0,0 km/h (0 Bft)
08.03.2009 17:40 17,6 C 9,8 C 47 % 65 % 1002,3 hPa 0,0 l/m 0,0 km/h (0 Bft)
08.03.2009 17:42 17,6 C 9,8 C 47 % 65 % 1002,3 hPa 0,0 l/m 0,0 km/h (0 Bft)
08.03.2009 17:44 17,6 C 9,8 C 47 % 65 % 1002,3 hPa 0,0 l/m 0,0 km/h (0 Bft)
08.03.2009 17:46 17,6 C 9,7 C 47 % 65 % 1002,3 hPa 0,0 l/m 0,0 km/h (0 Bft)
08.03.2009 17:48 17,6 C 9,7 C 47 % 65 % 1002,3 hPa 0,0 l/m 0,0 km/h (0 Bft)
08.03.2009 17:50 17,6 C 9,6 C 47 % 65 % 1002,4 hPa 0,0 l/m 0,0 km/h (0 Bft)
08.03.2009 17:52 17,6 C 9,6 C 47 % 66 % 1002,4 hPa 0,0 l/m 0,0 km/h (0 Bft)
08.03.2009 17:54 17,6 C 9,6 C 47 % 66 % 1002,4 hPa 0,0 l/m 0,0 km/h (0 Bft)
08.03.2009 17:56 17,6 C 9,6 C 47 % 66 % 1002,4 hPa 0,0 l/m 0,0 km/h (0 Bft)
08.03.2009 17:58 17,6 C 9,5 C 47 % 66 % 1002,4 hPa 0,0 l/m 0,0 km/h (0 Bft)
08.03.2009 18:00 17,6 C 9,5 C 47 % 66 % 1002,4 hPa 0,0 l/m 0,0 km/h (0 Bft)
08.03.2009 18:02 17,6 C 9,5 C 47 % 66 % 1002,4 hPa 0,0 l/m 0,0 km/h (0 Bft)
08.03.2009 18:04 17,6 C 9,5 C 47 % 66 % 1002,4 hPa 0,0 l/m 0,0 km/h (0 Bft)
08.03.2009 18:06 17,6 C 9,4 C 47 % 66 % 1002,4 hPa 0,0 l/m 0,0 km/h (0 Bft)
08.03.2009 18:08 17,6 C 9,4 C 47 % 67 % 1002,4 hPa 0,0 l/m 0,0 km/h (0 Bft)
08.03.2009 18:10 17,6 C 9,3 C 47 % 67 % 1002,4 hPa 0,0 l/m 0,0 km/h (0 Bft)
08.03.2009 18:12 17,6 C 9,3 C 47 % 67 % 1002,4 hPa 0,0 l/m 0,0 km/h (0 Bft)
08.03.2009 18:14 17,6 C 9,3 C 47 % 67 % 1002,4 hPa 0,0 l/m 0,0 km/h (0 Bft)
08.03.2009 18:16 17,6 C 9,2 C 47 % 67 % 1002,4 hPa 0,0 l/m 0,0 km/h (0 Bft)
08.03.2009 18:18 17,6 C 9,2 C 47 % 67 % 1002,4 hPa 0,0 l/m 0,0 km/h (0 Bft)
08.03.2009 18:20 17,6 C 9,1 C 47 % 67 % 1002,4 hPa 0,0 l/m 0,0 km/h (0 Bft)
08.03.2009 18:22 17,6 C 9,1 C 47 % 67 % 1002,4 hPa 0,0 l/m 0,0 km/h (0 Bft)
08.03.2009 18:24 17,6 C 9,0 C 47 % 67 % 1002,4 hPa 0,0 l/m 0,0 km/h (0 Bft)
08.03.2009 18:26 17,6 C 8,9 C 47 % 67 % 1002,4 hPa 0,0 l/m 0,0 km/h (0 Bft)
08.03.2009 18:28 17,6 C 8,9 C 47 % 67 % 1002,4 hPa 0,0 l/m 0,0 km/h (0 Bft)
08.03.2009 18:30 17,6 C 8,9 C 47 % 67 % 1002,4 hPa 0,0 l/m 0,0 km/h (0 Bft)
08.03.2009 18:32 17,6 C 8,9 C 47 % 67 % 1002,4 hPa 0,0 l/m 0,0 km/h (0 Bft)
08.03.2009 18:34 17,6 C 8,8 C 47 % 67 % 1002,4 hPa 0,0 l/m 0,0 km/h (0 Bft)
08.03.2009 18:36 17,6 C 8,8 C 47 % 67 % 1002,4 hPa 0,0 l/m 0,0 km/h (0 Bft)
08.03.2009 18:38 17,6 C 8,7 C 47 % 67 % 1002,4 hPa 0,0 l/m 0,0 km/h (0 Bft)
08.03.2009 18:40 17,6 C 8,6 C 47 % 66 % 1002,4 hPa 0,0 l/m 0,0 km/h (0 Bft)
08.03.2009 18:42 17,6 C 8,6 C 47 % 66 % 1002,4 hPa 0,0 l/m 0,0 km/h (0 Bft)
08.03.2009 18:44 17,6 C 8,5 C 47 % 65 % 1002,4 hPa 0,0 l/m 0,0 km/h (0 Bft)
08.03.2009 18:46 17,6 C 8,4 C 47 % 65 % 1002,4 hPa 0,0 l/m 0,0 km/h (0 Bft)
08.03.2009 18:48 17,6 C 8,4 C 47 % 65 % 1002,4 hPa 0,0 l/m 0,0 km/h (0 Bft)
08.03.2009 18:50 17,6 C 8,4 C 47 % 64 % 1002,4 hPa 0,0 l/m 0,0 km/h (0 Bft)
08.03.2009 18:52 17,6 C 8,4 C 47 % 64 % 1002,4 hPa 0,0 l/m 0,0 km/h (0 Bft)
08.03.2009 18:54 17,6 C 8,3 C 47 % 64 % 1002,4 hPa 0,0 l/m 0,0 km/h (0 Bft)
08.03.2009 18:56 17,6 C 8,3 C 47 % 64 % 1002,4 hPa 0,0 l/m 0,0 km/h (0 Bft)
08.03.2009 18:58 17,6 C 8,2 C 47 % 63 % 1002,4 hPa 0,0 l/m 0,0 km/h (0 Bft)
08.03.2009 19:00 17,6 C 8,2 C 47 % 63 % 1002,4 hPa 0,0 l/m 0,0 km/h (0 Bft)
08.03.2009 19:02 17,6 C 8,2 C 47 % 63 % 1002,4 hPa 0,0 l/m 0,0 km/h (0 Bft)
08.03.2009 19:04 17,6 C 8,1 C 47 % 63 % 1002,4 hPa 0,0 l/m 0,0 km/h (0 Bft)
08.03.2009 19:06 17,6 C 8,1 C 47 % 63 % 1002,4 hPa 0,0 l/m 0,0 km/h (0 Bft)
08.03.2009 19:08 17,6 C 8,1 C 47 % 63 % 1002,4 hPa 0,0 l/m 0,0 km/h (0 Bft)
08.03.2009 19:10 17,6 C 8,0 C 47 % 63 % 1002,4 hPa 0,0 l/m 0,0 km/h (0 Bft)
08.03.2009 19:12 17,6 C 7,9 C 47 % 63 % 1002,4 hPa 0,0 l/m 0,0 km/h (0 Bft)
08.03.2009 19:14 17,6 C 7,9 C 47 % 63 % 1002,4 hPa 0,0 l/m 0,0 km/h (0 Bft)
08.03.2009 19:16 17,6 C 7,9 C 47 % 62 % 1002,4 hPa 0,0 l/m 0,0 km/h (0 Bft)
08.03.2009 19:18 17,6 C 7,9 C 47 % 62 % 1002,4 hPa 0,0 l/m 0,5 km/h (0 Bft)
08.03.2009 19:20 17,6 C 7,8 C 47 % 62 % 1002,4 hPa 0,0 l/m 0,0 km/h (0 Bft)
08.03.2009 19:22 17,6 C 7,8 C 47 % 62 % 1002,4 hPa 0,0 l/m 1,1 km/h (1 Bft)
08.03.2009 19:24 17,6 C 7,8 C 47 % 61 % 1002,4 hPa 0,0 l/m 4,3 km/h (1 Bft)
08.03.2009 19:26 17,6 C 7,8 C 47 % 61 % 1002,4 hPa 0,0 l/m 1,6 km/h (1 Bft)
08.03.2009 19:28 17,6 C 7,8 C 47 % 61 % 1002,4 hPa 0,0 l/m 0,0 km/h (0 Bft)
08.03.2009 19:30 17,6 C 7,8 C 47 % 61 % 1002,4 hPa 0,0 l/m 0,0 km/h (0 Bft)
08.03.2009 19:32 17,6 C 7,8 C 47 % 61 % 1002,4 hPa 0,0 l/m 0,0 km/h (0 Bft)
08.03.2009 19:34 17,6 C 7,8 C 47 % 61 % 1002,4 hPa 0,0 l/m 11,8 km/h (2 Bft)
08.03.2009 19:36 17,6 C 7,8 C 46 % 61 % 1002,4 hPa 0,0 l/m 4,3 km/h (1 Bft)
08.03.2009 19:38 17,6 C 7,8 C 46 % 61 % 1002,4 hPa 0,0 l/m 0,0 km/h (0 Bft)
08.03.2009 19:40 17,6 C 7,8 C 46 % 61 % 1002,4 hPa 0,0 l/m 0,0 km/h (0 Bft)
08.03.2009 19:42 17,6 C 7,8 C 46 % 61 % 1002,4 hPa 0,0 l/m 0,0 km/h (0 Bft)
08.03.2009 19:44 17,6 C 7,8 C 46 % 61 % 1002,4 hPa 0,0 l/m 5,9 km/h (2 Bft)
08.03.2009 19:46 17,6 C 7,7 C 46 % 61 % 1002,4 hPa 0,0 l/m 0,0 km/h (0 Bft)
08.03.2009 19:48 17,6 C 7,6 C 46 % 61 % 1002,4 hPa 0,0 l/m 0,0 km/h (0 Bft)
08.03.2009 19:50 17,6 C 7,6 C 46 % 61 % 1002,4 hPa 0,0 l/m 0,0 km/h (0 Bft)
08.03.2009 19:52 17,6 C 7,6 C 46 % 61 % 1002,4 hPa 0,0 l/m 5,4 km/h (1 Bft)
08.03.2009 19:54 17,6 C 7,6 C 46 % 61 % 1002,4 hPa 0,0 l/m 4,8 km/h (1 Bft)
08.03.2009 19:56 17,6 C 7,6 C 46 % 61 % 1002,4 hPa 0,0 l/m 0,0 km/h (0 Bft)
08.03.2009 19:58 17,6 C 7,6 C 46 % 61 % 1002,4 hPa 0,0 l/m 0,0 km/h (0 Bft)
08.03.2009 20:00 17,6 C 7,6 C 46 % 61 % 1002,4 hPa 0,0 l/m 2,2 km/h (1 Bft)
08.03.2009 20:02 17,6 C 7,6 C 46 % 61 % 1002,4 hPa 0,0 l/m 2,2 km/h (1 Bft)
08.03.2009 20:04 17,6 C 7,6 C 46 % 61 % 1002,4 hPa 0,0 l/m 0,0 km/h (0 Bft)
08.03.2009 20:06 17,6 C 7,6 C 46 % 61 % 1002,4 hPa 0,0 l/m 0,0 km/h (0 Bft)
08.03.2009 20:08 17,6 C 7,5 C 46 % 61 % 1002,4 hPa 0,0 l/m 0,0 km/h (0 Bft)
08.03.2009 20:10 17,6 C 7,5 C 46 % 62 % 1002,4 hPa 0,0 l/m 0,0 km/h (0 Bft)
08.03.2009 20:12 17,6 C 7,5 C 46 % 62 % 1002,4 hPa 0,0 l/m 0,0 km/h (0 Bft)
08.03.2009 20:14 17,6 C 7,4 C 46 % 62 % 1002,4 hPa 0,0 l/m 0,0 km/h (0 Bft)
08.03.2009 20:16 17,6 C 7,4 C 46 % 62 % 1002,4 hPa 0,0 l/m 0,5 km/h (0 Bft)
08.03.2009 20:18 17,6 C 7,3 C 46 % 62 % 1002,4 hPa 0,0 l/m 13,5 km/h (3 Bft)
08.03.2009 20:20 17,6 C 7,3 C 46 % 62 % 1002,4 hPa 0,0 l/m 0,0 km/h (0 Bft)
08.03.2009 20:22 17,6 C 7,3 C 46 % 62 % 1002,4 hPa 0,0 l/m 17,2 km/h (3 Bft)
08.03.2009 20:24 17,6 C 7,3 C 46 % 62 % 1002,4 hPa 0,0 l/m 0,0 km/h (0 Bft)
08.03.2009 20:26 17,6 C 7,3 C 46 % 62 % 1002,4 hPa 0,0 l/m 0,0 km/h (0 Bft)
08.03.2009 20:28 17,6 C 7,2 C 46 % 62 % 1002,4 hPa 0,0 l/m 7,0 km/h (2 Bft)
08.03.2009 20:30 17,6 C 7,2 C 46 % 62 % 1002,4 hPa 0,0 l/m 0,0 km/h (0 Bft)
08.03.2009 20:32 17,6 C 7,2 C 46 % 62 % 1002,4 hPa 0,0 l/m 0,0 km/h (0 Bft)
08.03.2009 20:34 17,6 C 7,2 C 46 % 63 % 1002,4 hPa 0,0 l/m 0,0 km/h (0 Bft)
08.03.2009 20:36 17,6 C 7,2 C 46 % 63 % 1002,4 hPa 0,0 l/m 0,0 km/h (0 Bft)
08.03.2009 20:38 17,6 C 7,2 C 46 % 63 % 1002,4 hPa 0,0 l/m 22,1 km/h (4 Bft)
08.03.2009 20:40 17,6 C 7,1 C 46 % 63 % 1002,4 hPa 0,0 l/m 0,0 km/h (0 Bft)
08.03.2009 20:42 17,6 C 7,1 C 46 % 63 % 1002,4 hPa 0,0 l/m 3,8 km/h (1 Bft)
08.03.2009 20:44 17,6 C 7,0 C 46 % 63 % 1002,4 hPa 0,0 l/m 5,4 km/h (1 Bft)
08.03.2009 20:46 17,6 C 7,0 C 46 % 63 % 1002,4 hPa 0,0 l/m 6,5 km/h (2 Bft)
08.03.2009 20:48 17,6 C 6,9 C 46 % 63 % 1002,4 hPa 0,0 l/m 2,7 km/h (1 Bft)
08.03.2009 20:50 17,6 C 6,9 C 46 % 63 % 1002,4 hPa 0,0 l/m 3,8 km/h (1 Bft)
08.03.2009 20:52 17,6 C 6,9 C 46 % 63 % 1002,4 hPa 0,0 l/m 0,0 km/h (0 Bft)
08.03.2009 20:54 17,6 C 6,9 C 46 % 63 % 1002,4 hPa 0,0 l/m 0,0 km/h (0 Bft)
08.03.2009 20:56 17,6 C 6,9 C 46 % 63 % 1002,4 hPa 0,0 l/m 0,0 km/h (0 Bft)
08.03.2009 20:58 17,6 C 6,9 C 46 % 63 % 1002,4 hPa 0,0 l/m 14,5 km/h (3 Bft)
08.03.2009 21:00 17,6 C 6,9 C 46 % 63 % 1002,4 hPa 0,0 l/m 0,0 km/h (0 Bft)
08.03.2009 21:02 17,6 C 6,9 C 45 % 63 % 1002,4 hPa 0,0 l/m 0,0 km/h (0 Bft)
08.03.2009 21:04 17,6 C 6,8 C 45 % 63 % 1002,4 hPa 0,0 l/m 0,0 km/h (0 Bft)
08.03.2009 21:06 17,6 C 6,8 C 45 % 63 % 1002,4 hPa 0,0 l/m 12,4 km/h (3 Bft)
08.03.2009 21:08 17,6 C 6,8 C 45 % 63 % 1001,4 hPa 0,0 l/m 0,0 km/h (0 Bft)
08.03.2009 21:10 17,6 C 6,8 C 45 % 63 % 1001,4 hPa 0,0 l/m 0,0 km/h (0 Bft)
08.03.2009 21:12 17,6 C 6,7 C 45 % 64 % 1001,4 hPa 0,0 l/m 0,0 km/h (0 Bft)
08.03.2009 21:14 17,6 C 6,7 C 45 % 64 % 1001,4 hPa 0,0 l/m 0,0 km/h (0 Bft)
08.03.2009 21:16 17,6 C 6,6 C 45 % 64 % 1001,4 hPa 0,0 l/m 0,0 km/h (0 Bft)
08.03.2009 21:18 17,6 C 6,6 C 45 % 64 % 1001,4 hPa 0,0 l/m 0,0 km/h (0 Bft)
08.03.2009 21:20 17,6 C 6,6 C 45 % 64 % 1001,4 hPa 0,0 l/m 0,0 km/h (0 Bft)
08.03.2009 21:22 17,6 C 6,6 C 45 % 64 % 1001,4 hPa 0,0 l/m 3,8 km/h (1 Bft)
08.03.2009 21:24 17,6 C 6,6 C 45 % 64 % 1001,4 hPa 0,0 l/m 0,0 km/h (0 Bft)
08.03.2009 21:26 17,6 C 6,6 C 45 % 64 % 1001,4 hPa 0,0 l/m 15,6 km/h (3 Bft)
08.03.2009 21:28 17,6 C 6,6 C 45 % 64 % 1001,4 hPa 0,0 l/m 8,1 km/h (2 Bft)
08.03.2009 21:30 17,6 C 6,6 C 45 % 64 % 1001,4 hPa 0,0 l/m 11,3 km/h (2 Bft)
08.03.2009 21:32 17,6 C 6,6 C 45 % 64 % 1001,4 hPa 0,0 l/m 11,3 km/h (2 Bft)
08.03.2009 21:34 17,6 C 6,6 C 45 % 65 % 1001,4 hPa 0,0 l/m 4,8 km/h (1 Bft)
08.03.2009 21:36 17,6 C 6,6 C 44 % 65 % 1001,4 hPa 0,0 l/m 11,8 km/h (2 Bft)
08.03.2009 21:38 17,6 C 6,6 C 44 % 65 % 1001,4 hPa 0,0 l/m 1,6 km/h (1 Bft)
08.03.2009 21:40 17,6 C 6,7 C 44 % 65 % 1001,4 hPa 0,0 l/m 10,2 km/h (2 Bft)
08.03.2009 21:42 17,5 C 6,8 C 44 % 65 % 1001,4 hPa 0,0 l/m 8,1 km/h (2 Bft)
08.03.2009 21:44 17,6 C 6,8 C 44 % 65 % 1001,4 hPa 0,0 l/m 0,0 km/h (0 Bft)
08.03.2009 21:46 17,6 C 6,8 C 44 % 65 % 1001,4 hPa 0,0 l/m 2,7 km/h (1 Bft)
08.03.2009 21:48 17,6 C 6,8 C 44 % 65 % 1001,4 hPa 0,0 l/m 11,8 km/h (2 Bft)
08.03.2009 21:50 17,5 C 6,8 C 44 % 65 % 1001,4 hPa 0,0 l/m 19,9 km/h (4 Bft)
08.03.2009 21:52 17,6 C 6,8 C 44 % 65 % 1001,4 hPa 0,0 l/m 19,4 km/h (3 Bft)
08.03.2009 21:54 17,6 C 6,8 C 44 % 65 % 1001,4 hPa 0,0 l/m 4,8 km/h (1 Bft)
08.03.2009 21:56 17,5 C 6,8 C 44 % 65 % 1001,4 hPa 0,0 l/m 6,5 km/h (2 Bft)
08.03.2009 21:58 17,5 C 6,9 C 44 % 65 % 1001,4 hPa 0,0 l/m 0,0 km/h (0 Bft)
08.03.2009 22:00 17,5 C 6,9 C 44 % 65 % 1001,4 hPa 0,0 l/m 33,9 km/h (5 Bft)
08.03.2009 22:02 17,6 C 6,9 C 44 % 65 % 1001,4 hPa 0,0 l/m 33,9 km/h (5 Bft)
08.03.2009 22:04 17,6 C 6,9 C 44 % 65 % 1001,4 hPa 0,0 l/m 12,4 km/h (3 Bft)
08.03.2009 22:06 17,5 C 6,9 C 44 % 65 % 1001,4 hPa 0,0 l/m 6,5 km/h (2 Bft)
08.03.2009 22:08 17,6 C 6,9 C 44 % 65 % 1001,4 hPa 0,0 l/m 11,3 km/h (2 Bft)
08.03.2009 22:10 17,6 C 6,9 C 44 % 65 % 1001,4 hPa 0,0 l/m 5,4 km/h (1 Bft)
08.03.2009 22:12 17,6 C 6,9 C 44 % 65 % 1001,4 hPa 0,0 l/m 9,7 km/h (2 Bft)
08.03.2009 22:14 17,5 C 6,9 C 44 % 65 % 1001,4 hPa 0,0 l/m 7,5 km/h (2 Bft)
08.03.2009 22:16 17,5 C 6,9 C 44 % 65 % 1001,4 hPa 0,0 l/m 25,8 km/h (4 Bft)
08.03.2009 22:18 17,6 C 6,9 C 44 % 65 % 1001,4 hPa 0,0 l/m 5,4 km/h (1 Bft)
08.03.2009 22:20 17,5 C 6,9 C 44 % 65 % 1001,4 hPa 0,0 l/m 7,5 km/h (2 Bft)
08.03.2009 22:22 17,5 C 6,9 C 44 % 66 % 1001,4 hPa 0,0 l/m 19,9 km/h (4 Bft)
08.03.2009 22:24 17,6 C 6,9 C 44 % 66 % 1002,4 hPa 0,0 l/m 26,9 km/h (4 Bft)
08.03.2009 22:26 17,5 C 6,9 C 44 % 67 % 1002,4 hPa 0,0 l/m 10,8 km/h (2 Bft)
08.03.2009 22:28 17,5 C 6,8 C 44 % 67 % 1002,4 hPa 0,0 l/m 24,2 km/h (4 Bft)
08.03.2009 22:30 17,5 C 6,7 C 44 % 68 % 1002,4 hPa 0,0 l/m 0,0 km/h (0 Bft)
08.03.2009 22:32 17,6 C 6,6 C 44 % 68 % 1002,4 hPa 0,0 l/m 0,0 km/h (0 Bft)
08.03.2009 22:34 17,5 C 6,6 C 44 % 68 % 1002,4 hPa 0,0 l/m 0,0 km/h (0 Bft)
08.03.2009 22:36 17,5 C 6,5 C 44 % 68 % 1002,4 hPa 0,0 l/m 14,5 km/h (3 Bft)
08.03.2009 22:38 17,5 C 6,4 C 44 % 68 % 1002,4 hPa 0,0 l/m 11,8 km/h (2 Bft)
08.03.2009 22:40 17,5 C 6,4 C 44 % 68 % 1002,4 hPa 0,0 l/m 3,8 km/h (1 Bft)
08.03.2009 22:42 17,5 C 6,4 C 44 % 69 % 1002,4 hPa 0,0 l/m 4,3 km/h (1 Bft)
08.03.2009 22:44 17,5 C 6,4 C 44 % 69 % 1002,4 hPa 0,0 l/m 8,1 km/h (2 Bft)
08.03.2009 22:46 17,5 C 6,3 C 44 % 69 % 1002,4 hPa 0,0 l/m 3,8 km/h (1 Bft)
08.03.2009 22:48 17,5 C 6,3 C 44 % 69 % 1002,4 hPa 0,0 l/m 14,0 km/h (3 Bft)
08.03.2009 22:50 17,5 C 6,3 C 44 % 69 % 1002,4 hPa 0,0 l/m 3,2 km/h (1 Bft)
08.03.2009 22:52 17,5 C 6,3 C 44 % 69 % 1002,4 hPa 0,0 l/m 14,5 km/h (3 Bft)
08.03.2009 22:54 17,5 C 6,2 C 44 % 70 % 1002,4 hPa 0,0 l/m 2,7 km/h (1 Bft)
08.03.2009 22:56 17,5 C 6,2 C 44 % 70 % 1002,4 hPa 0,0 l/m 22,1 km/h (4 Bft)
08.03.2009 22:58 17,5 C 6,1 C 44 % 70 % 1002,4 hPa 0,0 l/m 14,5 km/h (3 Bft)
08.03.2009 23:00 17,5 C 6,1 C 44 % 70 % 1002,4 hPa 0,0 l/m 10,8 km/h (2 Bft)
08.03.2009 23:02 17,5 C 6,1 C 44 % 70 % 1002,4 hPa 0,0 l/m 4,3 km/h (1 Bft)
08.03.2009 23:04 17,5 C 6,1 C 44 % 70 % 1002,4 hPa 0,0 l/m 4,3 km/h (1 Bft)
08.03.2009 23:06 17,5 C 6,1 C 44 % 70 % 1002,4 hPa 0,0 l/m 8,1 km/h (2 Bft)
08.03.2009 23:08 17,5 C 6,0 C 44 % 70 % 1002,4 hPa 0,0 l/m 3,2 km/h (1 Bft)
08.03.2009 23:10 17,5 C 5,9 C 44 % 71 % 1002,4 hPa 0,0 l/m 3,8 km/h (1 Bft)
08.03.2009 23:12 17,5 C 5,9 C 44 % 71 % 1002,4 hPa 0,0 l/m 5,4 km/h (1 Bft)
08.03.2009 23:14 17,5 C 5,9 C 44 % 71 % 1002,4 hPa 0,0 l/m 12,4 km/h (3 Bft)
08.03.2009 23:16 17,5 C 5,9 C 44 % 71 % 1002,4 hPa 0,0 l/m 0,0 km/h (0 Bft)
08.03.2009 23:18 17,5 C 5,8 C 44 % 71 % 1002,4 hPa 0,0 l/m 2,7 km/h (1 Bft)
08.03.2009 23:20 17,5 C 5,8 C 44 % 71 % 1002,4 hPa 0,0 l/m 16,7 km/h (3 Bft)
08.03.2009 23:22 17,5 C 5,8 C 44 % 72 % 1002,4 hPa 0,0 l/m 0,0 km/h (0 Bft)
08.03.2009 23:24 17,5 C 5,8 C 44 % 72 % 1002,4 hPa 0,0 l/m 9,7 km/h (2 Bft)
08.03.2009 23:26 17,5 C 5,6 C 44 % 72 % 1002,4 hPa 0,0 l/m 1,6 km/h (1 Bft)
08.03.2009 23:28 17,5 C 5,6 C 44 % 72 % 1002,4 hPa 0,0 l/m 0,0 km/h (0 Bft)
08.03.2009 23:30 17,5 C 5,6 C 44 % 73 % 1002,4 hPa 0,0 l/m 10,8 km/h (2 Bft)
08.03.2009 23:32 17,5 C 5,6 C 44 % 73 % 1002,4 hPa 0,0 l/m 0,0 km/h (0 Bft)
08.03.2009 23:34 17,5 C 5,6 C 44 % 73 % 1002,4 hPa 0,0 l/m 0,0 km/h (0 Bft)
08.03.2009 23:36 17,5 C 5,5 C 44 % 73 % 1002,4 hPa 0,0 l/m 0,0 km/h (0 Bft)
08.03.2009 23:38 17,5 C 5,5 C 44 % 73 % 1002,4 hPa 0,0 l/m 4,8 km/h (1 Bft)
08.03.2009 23:40 17,5 C 5,5 C 44 % 73 % 1002,4 hPa 0,0 l/m 11,8 km/h (2 Bft)
08.03.2009 23:42 17,5 C 5,4 C 44 % 73 % 1002,4 hPa 0,0 l/m 7,5 km/h (2 Bft)
08.03.2009 23:44 17,5 C 5,4 C 44 % 73 % 1002,4 hPa 0,0 l/m 0,0 km/h (0 Bft)
08.03.2009 23:46 17,5 C 5,4 C 44 % 73 % 1002,4 hPa 0,0 l/m 10,8 km/h (2 Bft)
08.03.2009 23:48 17,5 C 5,4 C 44 % 73 % 1002,4 hPa 0,0 l/m 0,5 km/h (0 Bft)
08.03.2009 23:50 17,5 C 5,4 C 44 % 73 % 1002,4 hPa 0,0 l/m 0,0 km/h (0 Bft)
08.03.2009 23:52 17,5 C 5,4 C 44 % 73 % 1002,4 hPa 0,0 l/m 1,6 km/h (1 Bft)
08.03.2009 23:54 17,5 C 5,4 C 44 % 73 % 1002,4 hPa 0,0 l/m 4,8 km/h (1 Bft)
08.03.2009 23:56 17,5 C 5,5 C 44 % 73 % 1002,4 hPa 0,0 l/m 2,2 km/h (1 Bft)
08.03.2009 23:58 17,5 C 5,5 C 44 % 73 % 1002,4 hPa 0,0 l/m 0,5 km/h (0 Bft)
_ Min-Zeit 04:32 23:42 21:36 19:24 21:08 - 00:00
Minimum _ 16,8 C 5,4 C 44 % 61 % 1001,4 hPa - 0,0 km/h (0 Bft)
_ Max-Zeit 15:54 15:04 11:24 11:04 00:00 09:30 22:00
Maximum _ 17,7 C 10,8 C 51 % 88 % 1010,4 hPa 0,5 l/m 33,9 km/h
NW (5 Bft)
Durchschnitt _ 17,2 C 8,4 C 47 % 75 % 1004,3 hPa #3,1 l/m 4,1 km/h (1 Bft)
© 2012 W. Hausmann